Challenge : Adventure

  1. [#9259 - 2019-04-14] Wyvern22 - Easy
  2. [#9260 - 2019-04-14] Doougii - Easy
  3. [#9268 - 2019-04-14] Swoopy-Bunny - Easy
  4. [#9262 - 2019-04-15] justoline - Easy
  5. [#9263 - 2019-04-15] ParsleyParsnips - Easy
  6. [#9284 - 2019-04-16] Punkero - Easy
  7. [#9285 - 2019-04-16] ScarletCelestial - Easy
  8. [#9291 - 2019-04-18] Jhiday - Easy
  9. [#9316 - 2019-04-22] Zenit - Easy
  10. [#9320 - 2019-04-24] cappuccinoangel - Easy
  11. [#9348 - 2019-04-27] Rebe92 - Easy
  12. [#9363 - 2019-04-29] Imyreld - Easy
  13. [#9422 - 2019-05-02] Rno081 - Easy
  14. [#9433 - 2019-05-03] DeadlyRaven - Easy
  15. [#9439 - 2019-05-03] greyjoie - Easy
  16. [#9531 - 2019-05-19] toxif - Easy
  17. [#9557 - 2019-05-24] AngelHana - Easy
  18. [#9575 - 2019-05-27] Campiz06 - Easy
  19. [#9577 - 2019-05-28] Lokhlass - Easy
  20. [#9588 - 2019-05-28] foxxykat1223 - Easy
  21. [#9630 - 2019-06-01] lifeiscrazy - Easy
  22. [#9659 - 2019-06-08] ShockZz - Easy
  23. [#9660 - 2019-06-08] TheEdgelord - Easy
  24. [#9662 - 2019-06-09] ownitlikeaboss - Easy
  25. [#9670 - 2019-06-10] istherefood - Easy
  26. [#9679 - 2019-06-10] Aelric1 - Easy
  27. [#9721 - 2019-06-20] starfishalliance - Easy
  28. [#9775 - 2019-06-28] SebastianOrf3 - Easy
  29. [#9805 - 2019-06-30] Zilluminate - Easy
  30. [#9905 - 2019-07-19] inesmarques2011 - Easy
  31. [#9925 - 2019-07-21] GakutoDeathGlare - Easy
  32. [#9959 - 2019-07-26] Papa_Dragon - Easy
  33. [#9992 - 2019-07-30] MissCactus - Easy
  34. [#10000 - 2019-07-31] YumeNoTsukii - Easy
  35. [#10047 - 2019-08-06] lagom - Easy
  36. [#10079 - 2019-08-12] Technotron - Easy
  37. [#10093 - 2019-08-16] AnshiAneko - Easy
  38. [#10110 - 2019-08-18] Aeradae - Easy
  39. [V2 - #65 - 2019-08-29] Jhiday - Medium (upgraded from Easy)
  40. [V2 - #73 - 2019-08-30] sassss - Easy
  41. [V2 - #143 - 2019-09-06] KuraikoDesu - Easy
  42. [V2 - #172 - 2019-09-10] Schlopsi - Easy
  43. [V2 - #189 - 2019-09-14] Ylienna - Easy
  44. [V2 - #249 - 2019-09-19] Akai_Shuichi - Easy
  45. [V2 - #265 - 2019-09-22] Wyvern22 - Hard
  46. [V2 - #268 - 2019-09-23] TEMPEST_RIMURU - Easy
  47. [V2 - #343 - 2019-09-28] zani36 - Easy
  48. [V2 - #349 - 2019-09-28] Sertaslo - Easy
  49. [V2 - #360 - 2019-09-29] renzoushi - Easy
  50. [V2 - #380 - 2019-10-01] ScarletCelestial - Medium
  51. [V2 - #448 - 2019-10-07] isahbellah - Easy
  52. [V2 - #494 - 2019-10-14] SheyCroix - Easy
  53. [V2 - #503 - 2019-10-15] Bern_stein - Easy
  54. [V2 - #556 - 2019-10-21] SunflowerDaisho - Easy
  55. [V2 - #659 - 2019-10-31] ExperienceLD - Easy
  56. [V2 - #846 - 2019-11-20] Gwathgor - Easy
  57. [V2 - #860 - 2019-11-21] Imyreld - Medium
  58. [V2 - #894 - 2019-11-25] Sostter - Easy
  59. [V2 - #897 - 2019-11-25] ShockZz - Medium
  60. [V2 - #924 - 2019-11-27] lowaltitude - Easy
  61. [V2 - #964 - 2019-11-30] Papa_Dragon - Medium
  62. [V2 - #977 - 2019-11-30] MochiMagus - Easy
  63. [V2 - #1077 - 2019-12-15] lostnyanko - Easy
  64. [V2 - #1103 - 2019-12-18] PorkyMcnuggins - Easy
  65. [V2 - #1118 - 2019-12-18] Nezperdian - Easy
  66. [V2 - #1163 - 2019-12-25] Typhlame - Easy
  67. [V2 - #1241 - 2019-12-30] erotas - Easy
  68. [V2 - #1375 - 2020-01-09] Mnemosymnal - Easy
  69. [V2 - #1409 - 2020-01-13] Eyth - Easy
  70. [V2 - #1433 - 2020-01-16] MegaManBK7 - Easy
  71. [V2 - #1458 - 2020-01-18] cornflakegod - Easy
  72. [V2 - #1591 - 2020-01-30] KeylosDesu - Easy
  73. [V2 - #1646 - 2020-02-02] -Ez_Bri_zy- - Easy
  74. [V2 - #1678 - 2020-02-05] Jhiday - Hard (upgraded from Medium)
  75. [V2 - #1696 - 2020-02-08] Technotron - Medium
  76. [V2 - #1713 - 2020-02-08] BrunoMarq - Easy
  77. [V2 - #1748 - 2020-02-12] dixcloxure - Easy
  78. [V2 - #1748 - 2020-02-12] dixcloxure - Medium
  79. [V2 - #1748 - 2020-02-12] dixcloxure - Hard
  80. [V2 - #1797 - 2020-02-16] Rage_Beat06 - Easy
  81. [V2 - #1806 - 2020-02-16] Aeradae - Medium
  82. [V2 - #1885 - 2020-02-25] Mikaytama13 - Easy
  83. [V2 - #1913 - 2020-02-27] BeanChagBear - Easy
  84. [V2 - #2004 - 2020-03-04] DeadlyRaven - Medium
  85. [V2 - #2065 - 2020-03-09] Bunille - Easy
  86. [V2 - #2086 - 2020-03-12] Rellni944 - Easy
  87. [V2 - #2112 - 2020-03-14] dierubikdie - Easy
  88. [V2 - #2123 - 2020-03-14] KuriPuri - Easy
  89. [V2 - #2133 - 2020-03-15] MrDucky1231 - Easy
  90. [V2 - #2143 - 2020-03-16] iamrure - Easy
  91. [V2 - #2243 - 2020-03-26] Aur0ra - Easy
  92. [V2 - #2405 - 2020-04-06] -Ez_Bri_zy- - Hard
  93. [V2 - #2475 - 2020-04-12] lostnyanko - Hard
  94. [V2 - #2545 - 2020-04-16] TreasuredHopes - Easy
  95. [V2 - #2554 - 2020-04-17] ImagineBrkr - Easy
  96. [V2 - #2557 - 2020-04-17] TheFlyingOrange - Easy
  97. [V2 - #2566 - 2020-04-17] AngelShiva - Easy
  98. [V2 - #2566 - 2020-04-17] AngelShiva - Hard (upgraded from Easy)
  99. [V2 - #2566 - 2020-04-17] AngelShiva - Medium
  100. [V2 - #2569 - 2020-04-17] leapylee - Easy
  101. [V2 - #2645 - 2020-04-23] AngelShiva - Easy
  102. [V2 - #2769 - 2020-05-01] Amitte_Sukku - Easy
  103. [V2 - #2818 - 2020-05-05] Bishamon-chan - Easy
  104. [V2 - #2911 - 2020-05-14] BurntFlower - Easy
  105. [V2 - #2920 - 2020-05-14] Mr_Duke_ - Easy
  106. [V2 - #2966 - 2020-05-19] MetalFalcon - Easy
  107. [V2 - #2968 - 2020-05-19] epicdtx - Easy
  108. [V2 - #2978 - 2020-05-20] Rellni944 - Hard (upgraded from Easy)
  109. [V2 - #2985 - 2020-05-20] Wyvern22 - Medium
  110. [V2 - #2997 - 2020-05-21] Yterbium - Easy
  111. [V2 - #3041 - 2020-05-24] ScarletCelestial - Hard
  112. [V2 - #3061 - 2020-05-25] pranaynighukar - Easy
  113. [V2 - #3068 - 2020-05-25] OmegaOtaku - Easy
  114. [V2 - #3140 - 2020-05-30] __Saku - Easy
  115. [V2 - #3143 - 2020-05-30] Vaniltea - Easy
  116. [V2 - #3213 - 2020-06-02] indiwyn - Easy
  117. [V2 - #3288 - 2020-06-08] hinagatari - Easy
  118. [V2 - #3363 - 2020-06-16] TheFlyingOrange - Medium (upgraded from Easy)
  119. [V2 - #3379 - 2020-06-17] lostnyanko - Medium
  120. [V2 - #3590 - 2020-07-04] Papa_Dragon - Hard
  121. [V2 - #3632 - 2020-07-09] blindzero - Easy
  122. [V2 - #3640 - 2020-07-10] YayakoChii - Easy
  123. [V2 - #3652 - 2020-07-11] Cravenlock - Easy
  124. [V2 - #3654 - 2020-07-11] GNozaki - Easy
  125. [V2 - #3670 - 2020-07-14] Hidoi88 - Easy
  126. [V2 - #3680 - 2020-07-14] Eleanora1315 - Easy
  127. [V2 - #3675 - 2020-07-15] Rellni944 - Easy
  128. [V2 - #3699 - 2020-07-15] -Ez_Bri_zy- - Medium
  129. [V2 - #3783 - 2020-07-22] animegeek4life - Easy
  130. [V2 - #3842 - 2020-07-26] Jitti - Easy
  131. [V2 - #3867 - 2020-07-27] ryuzakix55 - Easy
  132. [V2 - #3911 - 2020-07-30] lostnyanko x2 - Easy
  133. [V2 - #3933 - 2020-07-31] Helvian494743 - Easy
  134. [V2 - #3991 - 2020-08-05] ParsleyParsnips - Medium
  135. [V2 - #4074 - 2020-08-12] nerfsunny - Easy
  136. [V2 - #4071 - 2020-08-13] Bunille - Medium
  137. [V2 - #4126 - 2020-08-17] Campiz06 - Medium
  138. [V2 - #4135 - 2020-08-18] CheeseKnife - Easy
  139. [V2 - #4134 - 2020-08-19] Zenit - Hard
  140. [V2 - #4207 - 2020-08-23] lamictal - Easy
  141. [V2 - #4242 - 2020-08-25] Dakenfromvault1 - Easy
  142. [V2 - #4272 - 2020-08-28] Aelyriel - Easy
  143. [V2 - #4294 - 2020-08-29] Otaku_baka_dsk - Easy
  144. [V2 - #4310 - 2020-08-30] Typhlame - Hard
  145. [V2 - #4331 - 2020-08-31] SolidBlade - Easy
  146. [V2 - #4346 - 2020-08-31] ShockZz - Hard
  147. [V2 - #4487 - 2020-09-14] Gem_Evergreen - Easy
  148. [V2 - #4509 - 2020-09-16] nozomemee - Easy
  1. .hack//G.U. Returner
  2. .hack//Intermezzo
  3. .hack//Quantum
  4. .hack//Roots
  5. .hack//Sign
  6. .hack//Tasogare no Udewa Densetsu
  7. .hack//Tasogare no Udewa Densetsu: Offline de Aimashou
  8. .hack//The Movie: Sekai no Mukou ni
  9. .hack//Unison
  10. 009 Re:Cyborg
  11. 1000-nen Joou: Queen Millennia
  12. 11-nin Iru!
  13. 21 Seiki Manga Hajimete Monogatari
  14. 3 Choume no Tama: Onegai! Momo-chan wo Sagashite!!
  15. not available in English 3 Choume no Tama: Uchi no Tama Shirimasen ka?
  16. 3x3 Eyes: Seima Densetsu
  17. 7 Seeds
  18. 7 Seeds 2nd Season
  19. A Tang Qi Yu
  20. A-Ko The Versus
  21. AD Police
  22. Afro Samurai
  23. Afro Samurai Movie
  24. Afro Samurai: Resurrection
  25. After War Gundam X
  26. not available in English Agigongryong Doolie
  27. Agigongryong Doolie (2009)
  28. Ahiru no Pekkle no Hihou wo Sagase
  29. Ahiru no Pekkle no Sindbad no Bouken
  30. not available in English Ai no Senshi Rainbowman
  31. Ai Tenshi Densetsu Wedding Peach
  32. Ai Tenshi Densetsu Wedding Peach DX
  33. Ai Tenshi Densetsu Wedding Peach Specials
  34. Ai to Ken no Camelot: Mangaka Marina Time Slip Jiken
  35. not available in English Ai to Yuuki no Pig Girl Tonde Buurin
  36. AIKa
  37. AIKa Zero
  38. not available in English AIUEO Anime Sekai no Douwa: Aesop Monogatari Anime Series
  39. not available in English Akadou Suzunosuke
  40. Akage no Anne: Green Gables e no Michi
  41. Akai Koudan Zillion
  42. Akai Koudan Zillion Recaps
  43. Akai Koudan Zillion: Utahime Yakyoku
  44. Akame ga Kill!
  45. Akame ga Kill! Recap
  46. Akatsuki no Yona
  47. Akazukin Chacha
  48. Akihabara Dennou-gumi
  49. Akihabara Dennou-gumi: 2011-nen no Natsuyasumi
  50. Akira
  51. Akuma Tou no Prince: Mitsume ga Tooru
  52. not available in English Akuma-kun
  53. Akuma-kun (Movie)
  54. Akuma-kun: Youkoso Akuma Land e!!
  55. Alexander Senki
  56. Alexander Senki Movie
  57. Alice in Dreamland
  58. not available in English Alice SOS
  59. Alice to Zouroku
  60. Allison to Lillia
  61. Amada Anime Series: Super Mario Brothers
  62. Amazing Nuts!
  63. Amon Saga
  64. An Ling Yu Shi Di Qi
  65. Anata wo Zutto Aishiteru
  66. not available in English Andes Shounen Pepero no Bouken
  67. Ange Vierge
  68. hentai Angel Blade Punish!
  69. Angelique: Seichi yori Ai wo Komete
  70. Ani*Kuri15
  71. Animal Yokochou
  72. not available in English Animation Kikou: Marco Polo no Bouken
  73. Animation!
  74. Anime 80-nichikan Sekai Isshuu
  75. Anime Koukyoushi: Jungle Taitei
  76. Anime Oyako Gekijou
  77. Anime Sanjuushi
  78. Anime Sanjuushi: Aramis no Bouken
  79. not available in English Anime Yasei no Sakebi
  80. Annyeong, Tyrano: Yeong-wonhi, Hamkke
  81. Ano Yama ni Noborou yo
  82. Ao no 6-gou
  83. Aoi Blink
  84. Aoi Sekai no Chuushin de
  85. Aoi Umi no Tristia
  86. not available in English AOTU Shijie
  87. not available in English AOTU Shijie 2
  88. ongoing not available in English AOTU Shijie 3
  89. Apfelland Monogatari
  90. Appleseed
  91. Appleseed Alpha
  92. Aqua Kids
  93. Aquarian Age: Sign for Evolution
  94. Ar Tonelico: Sekai no Owari de Utai Tsuzukeru Shoujo
  95. Arabian Nights: Sindbad no Bouken
  96. Arabian Nights: Sindbad no Bouken (TV)
  97. Arad Senki: Slap Up Party
  98. Arad: Suming zhi Men
  99. Arano no Sakebi Koe: Hoero, Buck
  100. Arashi no Yoru ni
  101. Arashi no Yoru ni: Himitsu no Tomodachi
  102. Arata Kangatari
  103. Arc the Lad
  104. Area 88
  105. Area 88 Movie
  106. Arei no Kagami: Way to the Virgin Space
  107. Argento Soma
  108. Arifureta Shokugyou de Sekai Saikyou
  109. Arifureta Shokugyou de Sekai Saikyou Recap
  110. Arifureta Shokugyou de Sekai Saikyou Specials
  111. Arion
  112. Armageddon
  113. Armitage III
  114. Armitage III: Dual-Matrix
  115. Armitage III: Poly-Matrix
  116. Arms Rally
  117. Arslan Senki
  118. Arslan Senki (TV)
  119. Arslan Senki (TV) Gaiden
  120. Arslan Senki (TV): Fuujin Ranbu
  121. Arslan Senki (TV): Tsuioku no Shou - Dakkan no Yaiba
  122. Aru Tabibito no Nikki
  123. Asari-chan: Ai no Marchen Shoujo
  124. Asatir: Mirai no Mukashi Banashi
  125. Ashita no Nadja
  126. Asobot Senki Gokuu
  127. not available in English Asobou! Hello Kitty
  128. Astro Boy: Tetsuwan Atom
  129. Aurora wo Mita Kyouryuu-tachi
  130. Avenger
  131. Ayashi no Ceres
  132. B-Legend! Battle B-Daman
  133. B-Legend! Battle B-Daman Fire Spirits!
  134. B'T X
  135. B'T X Neo
  136. not available in English Babel Nisei
  137. Babel Nisei (2001)
  138. Backkom Meogeujan Yeohaeng
  139. Bada-ui Jeonseol Jangbogo
  140. Baguda-jou no Touzoku
  141. Bai She: Yuan Qi
  142. Bai Yao Pu
  143. Bakemono no Ko
  144. Bakugan Battle Brawlers: Gundalian Invaders
  145. Bakugan Battle Brawlers: Mechtanium Surge
  146. Bakugan Battle Brawlers: New Vestroia
  147. Bakukyuu Hit! Crash B-Daman
  148. not available in English Bakukyuu Renpatsu! Super B-Daman Specials
  149. not available in English Bakukyuu Renpatsu!! Super B-Daman
  150. Bakuretsu Hunters
  151. Bakuretsu Hunters OVA
  152. Bakuretsu Tenshi
  153. not available in English Bakusou Kyoudai Let's & Go
  154. not available in English Bakusou Kyoudai Let's & Go Special
  155. Bakusou Kyoudai Let's & Go!! WGP Bousou Mini Yonku Daitsuiseki
  156. Bakuten Shoot Beyblade
  157. Bakuten Shoot Beyblade 2002
  158. Bakuten Shoot Beyblade G Revolution
  159. Bakuten Shoot Beyblade the Movie: Gekitou!! Takao vs. Daichi
  160. Bakutou Sengen Daigunder
  161. Bakutsuri Bar Hunter
  162. Banana Fish
  163. Bannou Bunka Neko-Musume
  164. Bannou Bunka Neko-Musume (1998)
  165. Bannou Bunka Neko-Musume Specials
  166. Bao Lian Deng
  167. Barbapapa Sekai wo Mawaru
  168. Basilisk: Kouga Ninpou Chou
  169. Bastard!!: Ankoku no Hakaishin
  170. Batman: Gotham Knight
  171. Baton
  172. Battle Athletess Daiundoukai (TV)
  173. Battle Spirits: Brave
  174. ongoing not available in English Battle Spirits: Kakumei no Galette
  175. Battle Spirits: Saga Brave
  176. Battle Spirits: Shounen Gekiha Dan
  177. Battle Spirits: Sword Eyes
  178. Battle Spirits: Sword Eyes Gekitouden
  179. Bavi Stock
  180. Beast Wars Second Chou Seimeitai Transformers: Lio Convoy Kiki Ippatsu! Movie
  181. not available in English Bemubemu Hunter Kotengu Tenmaru
  182. Beng Huai Xinghe
  183. Berserk
  184. Berserk 2nd Season
  185. Berserk Recap
  186. Berserk: Majo no Tsuisou
  187. Berserk: Ougon Jidai-hen I - Haou no Tamago
  188. Berserk: Ougon Jidai-hen II - Doldrey Kouryaku
  189. Berserk: Ougon Jidai-hen III - Kourin
  190. Betterman
  191. Beyblade Burst
  192. Beyblade Burst Chouzetsu
  193. Beyblade Burst Gachi
  194. Beyblade Burst God
  195. ongoing Beyblade Burst Super King
  196. Bikkuriman 2000
  197. Bikkuriman: Daiichiji Seima Taisen
  198. Bikkuriman: Moen Zone no Himitsu
  199. Biohazard 4D-Executer
  200. Bip to Bap
  201. Birth
  202. Birthday Wonderland
  203. Bishoujo Senshi Sailor Moon S: Kaguya-hime no Koibito
  204. Bishoujo Senshi Sailor Moon: Sailor Stars
  205. Bishoujo Senshi Sailor Moon: Sailor Stars - Hero Club
  206. Black Cat (TV)
  207. Black Cat (TV): Toozakaru Neko
  208. Black Jack (TV): Hizouban Specials
  209. Blade & Soul
  210. Blade of the Immortal
  211. Bleach
  212. Bleach Movie 1: Memories of Nobody
  213. Bleach Movie 2: The DiamondDust Rebellion - Mou Hitotsu no Hyourinmaru
  214. Bleach Movie 3: Fade to Black - Kimi no Na wo Yobu
  215. Bleach Movie 4: Jigoku-hen
  216. Bleach: Memories in the Rain
  217. Bleach: The Sealed Sword Frenzy
  218. Blue Dragon
  219. Blue Dragon: Tenkai no Shichi Ryuu
  220. Blue Gender
  221. Blue Gender: The Warrior
  222. Blue Remains
  223. Blue Seed
  224. Bobobo-bo Bo-bobo
  225. Bogeul Bogeul Bomulseon
  226. Boku no Son Gokuu
  227. Bokutachi no Peace River
  228. Bomberman Jetters
  229. Bonobono: Uchuu kara Kita Tomodachi
  230. ongoing Boruto: Naruto Next Generations
  231. Bosco Daibouken
  232. not available in English Bouken Gabotenjima
  233. not available in English Bouken Korobokkuru
  234. Bouken Ou Beet
  235. Bouken Ou Beet Excellion
  236. not available in English Bouken Shounen Shadar
  237. not available in English Bouken Yuuki Pluster World
  238. Bouken-tachi Gamba to Nanbiki no Nakama
  239. Bouken! Iczer 3
  240. not available in English Boukensha: The Man Was from Spain
  241. Boukyaku no Senritsu
  242. Brain Powerd
  243. Brave 10
  244. Brave Beats
  245. Brave Story
  246. Bremen 4: Jigoku no Naka no Tenshi-tachi
  247. Brigadoon: Marin to Melan
  248. Bubaga
  249. Bubblegum Crash
  250. Bubblegum Crisis
  251. Bubblegum Crisis Tokyo 2040
  252. not available in English Bug tte Honey
  253. Bug tte Honey: Megarom Shoujo Mai 4622
  254. Bungou to Alchemist: Shinpan no Haguruma
  255. Bunna yo Ki kara Orite Koi
  256. Burn Up Excess
  257. Buta
  258. Byeolnala Samchongsa
  259. California Crisis: Tsuigeki no Juuka
  260. Cannon Busters
  261. Capricorn
  262. Captain Future
  263. Captain Future: Kareinaru Taiyokei Race
  264. Card Wang: Mix Master
  265. Cardcaptor Sakura
  266. Cardcaptor Sakura: Clear Card-hen
  267. not available in English Cardcaptor Sakura: Clear Card-hen Recap
  268. Cardfight!! Vanguard
  269. ongoing Cardfight!! Vanguard Gaiden: If
  270. Cardfight!! Vanguard Movie: Neon Messiah
  271. Cardfight!! Vanguard: Asia Circuit-hen
  272. Cardfight!! Vanguard: Legion Mate-hen
  273. Cardfight!! Vanguard: Link Joker-hen
  274. Casshern Sins
  275. Casshern: Robot Hunter
  276. Cat's Eye
  277. Chaechaepong Kimchi Pong
  278. Chain Chronicle: Haecceitas no Hikari
  279. Chain Chronicle: Haecceitas no Hikari Part 1
  280. Chain Chronicle: Haecceitas no Hikari Part 2
  281. Chain Chronicle: Haecceitas no Hikari Part 3
  282. Chain Chronicle: Short Animation
  283. Change!! Getter Robo: Sekai Saigo no Hi
  284. Chara to Otamajakushi Shima
  285. Chargeman Ken!
  286. Chibi Neko Tomu no Daibouken: Chikyuu wo Sukue! Nakama-tachi
  287. Chibikko Kamu no Bouken
  288. Chibikko Remi to Meiken Kapi
  289. Chieri to Cherry
  290. Chii Jiaan Chuaanqii
  291. not available in English Chiisana Ahiru no Ooki na Ai no Monogatari: Ahiru no Kwak
  292. Chiisana Eiyuu: Kani to Tamago to Toumei Ningen
  293. Chiisana Kyojin Microman
  294. Chiisana Kyojin Microman: Daigekisen! Microman vs. Saikyou Senshi Gorgon
  295. Chiisana Penguin Lolo no Bouken
  296. not available in English Chiisana Viking Vickie
  297. Chikyuu Bouei Kigyou Dai-Guard
  298. Chikyuu Monogatari Telepath 2500
  299. Chikyuu Shoujo Arjuna
  300. not available in English Chingou Muchabee
  301. Chirin no Suzu
  302. Chiro-wa Chingu-deul
  303. Chocolate Underground
  304. not available in English Chocolate Underground: Bokura no Chocolate Sensou
  305. Choegang Habche: Mix Master
  306. not available in English Chogattai Majutsu Robot Ginguiser
  307. Chogattai Majutsu Robot Ginguiser Specials
  308. ongoing Chokotto Anime Kemono Friends 3
  309. not available in English Chou Dendou Robo Tetsujin 28-gou FX
  310. Chou Denji Machine Voltes V
  311. Chou Denji Robo Combattler V
  312. Chou Hatsumei Boy Kanipan
  313. Chou Henshin Cosprayers
  314. Chou Henshin Cosprayers Specials
  315. Chou Mashin Eiyuuden Wataru
  316. Chou Seimeitai Transformers Beast Wars Neo
  317. Chou Tokkyuu Hikarian
  318. Chou Yuu Sekai: Being the Reality
  319. Chouja Raideen
  320. Choujikuu Seiki Orguss
  321. Choujikuu Seiki Orguss 02
  322. Choujikuu Seiki Orguss Memorial
  323. not available in English Choujin Sentai Baratack
  324. Choujuu Densetsu Gestalt
  325. Choujuushin Gravion Zwei
  326. not available in English Chouriki Robo Galatt
  327. Choushin Hime Dangaizer 3
  328. Chrno Crusade: Az demo Wakaru Chrno Crusade Kouza
  329. Chrome Shelled Regios
  330. Chuldong! Super Wings
  331. Chuldong! Super Wings 2
  332. Chuldong! Super Wings 3
  333. Chuuchuu Banban
  334. Cinderella Boy
  335. Cinderella Monogatari
  336. City Hunter: Goodbye My Sweetheart
  337. Claymore
  338. Cleopatra D.C.
  339. Cobra The Animation
  340. Cobra The Animation: The Psycho-Gun
  341. Cobra The Animation: Time Drive
  342. Columbus no Daibouken
  343. Comet Lucifer
  344. Comet Lucifer: Garden Indigo no Shasou kara
  345. Conception
  346. Coo: Tooi Umi kara Kita Coo
  347. Cool Cool Bye
  348. not available in English Coral no Tanken
  349. not available in English Corrector Yui
  350. Cosmic Baton Girl Comet-san☆
  351. Cosmo Warrior Zero
  352. Cowboy Bebop
  353. Cowboy Bebop: Yose Atsume Blues
  354. Coyote Ragtime Show
  355. Crayon Shin-chan Movie 01: Action Kamen vs. Haigure Maou
  356. Crayon Shin-chan Movie 02: Buriburi Oukoku no Hihou
  357. Crayon Shin-chan Movie 04: Henderland no Daibouken
  358. Crayon Shin-chan Movie 05: Ankoku Tamatama Daitsuiseki
  359. Crayon Shin-chan Movie 08: Arashi wo Yobu Jungle
  360. Crayon Shin-chan Movie 11: Arashi wo Yobu Eikou no Yakiniku Road
  361. Crayon Shin-chan Movie 12: Arashi wo Yobu! Yuuhi no Kasukabe Boys
  362. Crayon Shin-chan Movie 18: Chou Jikuu! Arashi wo Yobu Ora no Hanayome
  363. Crayon Shin-chan Movie 21: Bakauma! B-Kyuu Gourmet Survival Battle!!
  364. Crayon Shin-chan Movie 23: Ora no Hikkoshi Monogatari - Saboten Daisuugeki
  365. Crayon Shin-chan Movie 25: Shin-chan Shuurai! Uchuujin Shiriri
  366. Croket!
  367. Crusher Joe
  368. Crusher Joe OVA
  369. Cutey Honey F
  370. Cutey Honey Flash: The Movie
  371. Cyber City Oedo 808
  372. Cybersix
  373. Cyborg 009
  374. Cyborg 009 (1979)
  375. not available in English Cyborg 009 (TV)
  376. Cyborg 009: Call of Justice 1
  377. Cyborg 009: Call of Justice 2
  378. Cyborg 009: Call of Justice 3
  379. Cyborg 009: Kaijuu Sensou
  380. Cyborg 009: The Cyborg Soldier
  381. Cyborg 009: The Cyborg Soldier - Kami no Ubugoe
  382. Cyborg 009: The Cyborg Soldier - Yomi no Gunzou
  383. D.Gray-man
  384. D.Gray-man Hallow
  385. D.I.C.E.
  386. Da Nao Tiangong
  387. Da Yu Hai Tang (Movie)
  388. Da Zhu Zai
  389. Dae Jang Geum: Jang Geum's Dream
  390. not available in English Dae Jang Geum: Jang Geum's Dream 2
  391. Dahufa
  392. Daikuu Maryuu Gaiking
  393. Daisetsusan no Yuusha Kibaou
  394. Daisougen no Chiisana Tenshi: Bush Baby
  395. Daisougen no Chiisana Tenshi: Bush Baby Specials
  396. Daisougen to Hakuba
  397. Dame x Prince Anime Caravan
  398. Dan Doh!!
  399. David gwa Goliath
  400. Dead Leaves
  401. Death March kara Hajimaru Isekai Kyousoukyoku
  402. ongoing Deca-Dence
  403. Deca-Dence: Install
  404. Deltora Quest
  405. Denkou Chou Tokkyuu Hikarian
  406. Dennou Boukenki Webdiver
  407. Dennou Coil
  408. Dennou Coil Recaps
  409. Densetsu no Yuusha no Densetsu
  410. Densetsu no Yuusha no Densetsu: Iris Report
  411. ongoing Detective Conan
  412. Detective Conan Magic File 2: Kudou Shinichi - The Case of the Mysterious Wall and the Black Lab
  413. Detective Conan Magic File 5: Niigata - Tokyo Omiyage Capriccio
  414. Detective Conan Movie 01: The Timed Skyscraper
  415. Detective Conan Movie 02: The Fourteenth Target
  416. Detective Conan Movie 03: The Last Wizard of the Century
  417. Detective Conan Movie 04: Captured in Her Eyes
  418. Detective Conan Movie 05: Countdown to Heaven
  419. Detective Conan Movie 06: The Phantom of Baker Street
  420. Detective Conan Movie 07: Crossroad in the Ancient Capital
  421. Detective Conan Movie 08: Magician of the Silver Sky
  422. Detective Conan Movie 08: Time Travel of the Silver Sky
  423. not available in English Detective Conan Movie 09: Promo Special
  424. Detective Conan Movie 09: Strategy Above the Depths
  425. not available in English Detective Conan Movie 10: Promo Special
  426. Detective Conan Movie 10: Requiem of the Detectives
  427. Detective Conan Movie 11: Jolly Roger in the Deep Azure
  428. Detective Conan Movie 12: Full Score of Fear
  429. Detective Conan Movie 15: Quarter of Silence
  430. Detective Conan Movie 16: The Eleventh Striker
  431. Detective Conan Movie 17: Private Eye in the Distant Sea
  432. Detective Conan OVA 01: Conan vs. Kid vs. Yaiba
  433. Detective Conan OVA 02: 16 Suspects
  434. Detective Conan OVA 03: Conan and Heiji and the Vanished Boy
  435. Detective Conan OVA 04: Conan and Kid and Crystal Mother
  436. Detective Conan OVA 05: The Target is Kogoro! The Detective Boys' Secret Investigation
  437. Detective Conan OVA 07: A Challenge from Agasa! Agasa vs. Conan and the Detective Boys
  438. Detective Conan OVA 09: The Stranger in 10 Years...
  439. Detective Conan OVA 10: Kid in Trap Island
  440. Detective Conan OVA 11: A Secret Order from London
  441. Detective Conan: Black History
  442. not available in English Detective Conan: Black History 2
  443. not available in English Detective Conan: Conan vs. Kid - Jet Black Sniper
  444. not available in English Detective Conan: Conan vs. Kid - Shark & Jewel
  445. Detective Conan: Episode One - The Great Detective Turned Small
  446. not available in English Detective Conan: The Burning Galactic Railway
  447. Di Wang Gong Lue
  448. not available in English Dia Horizon (Kabu)
  449. Digimon Adventure
  450. Digimon Adventure 02
  451. Digimon Adventure 02 Movies
  452. Digimon Adventure 02: Diablomon no Gyakushuu
  453. Digimon Adventure tri. 1: Saikai
  454. Digimon Adventure tri. 2: Ketsui
  455. Digimon Adventure tri. 3: Kokuhaku
  456. Digimon Adventure tri. 4: Soushitsu
  457. Digimon Adventure tri. 5: Kyousei
  458. Digimon Adventure tri. 6: Bokura no Mirai
  459. ongoing Digimon Adventure:
  460. ongoing Digimon Adventure: 20 Shuunen Memorial Story
  461. Digimon Adventure: Bokura no War Game!
  462. Digimon Frontier
  463. Digimon Frontier: Ornismon Fukkatsu!!
  464. Digimon Savers
  465. Digimon Savers the Movie: Kyuukyoku Power! Burst Mode Hatsudou!!
  466. Digimon Savers: Agumon! Gaomon! Lalamon! Bakuretsu! Jougai Last Battle!
  467. Digimon Tamers
  468. Digimon Tamers: Boukensha-tachi no Tatakai
  469. Digimon Tamers: Bousou Digimon Tokkyuu
  470. Digimon Universe: Appli Monsters
  471. Digimon X-Evolution
  472. Digimon Xros Wars
  473. Digimon Xros Wars: Aku no Death General to Nanatsu no Oukoku
  474. Digimon Xros Wars: Toki wo Kakeru Shounen Hunter-tachi
  475. Digital Devil Story: Megami Tensei
  476. DinoZone
  477. Dirty Pair
  478. Dirty Pair Flash
  479. Dirty Pair Flash 2
  480. Dirty Pair Flash 3
  481. Dirty Pair no Ooshoubu: Nolandia no Nazo
  482. Dirty Pair OVA
  483. Dirty Pair: Bouryaku no 005-bin
  484. Dirty Pair: Lovely Angels yori Ai wo Komete
  485. Dirty Pair: The Movie
  486. Divergence Eve
  487. Divergence Eve 2: Misaki Chronicles
  488. DNA Sights 999.9
  489. Doctor Mambo & Kaitou Jibako: Uchuu yori Ai wo Komete!!
  490. Dog Days
  491. Dog Days Recap
  492. Dog Days'
  493. Dog Days''
  494. Dokidoki♡Densetsu: Mahoujin Guruguru
  495. Dokkaebi Gamtu
  496. Dokkan! Robotendon
  497. Dolittle-sensei Monogatari
  498. not available in English Dolphin Ouji
  499. not available in English Don Chuck Monogatari
  500. Dongguo Xiaojie
  501. Doolie Baenang-Yeohaeng
  502. not available in English Doraemon
  503. not available in English Doraemon (1979)
  504. Doraemon Movie 01: Nobita no Kyouryuu
  505. Doraemon Movie 02: Nobita no Uchuu Kaitakushi
  506. Doraemon Movie 03: Nobita no Daimakyou
  507. Doraemon Movie 07: Nobita to Tetsujin Heidan
  508. Doraemon Movie 08: Nobita to Ryuu no Kishi
  509. not available in English Doraemon Movie 09: Nobita no Parallel Saiyuuki
  510. Doraemon Movie 10: Nobita no Nippon Tanjou
  511. Doraemon Movie 11: Nobita to Animal Planet
  512. Doraemon Movie 12: Nobita no Dorabian Nights
  513. Doraemon Movie 13: Nobita to Kumo no Oukoku
  514. Doraemon Movie 15: Nobita to Mugen Sankenshi
  515. Doraemon Movie 16: Nobita no Sousei Nikki
  516. Doraemon Movie 18: Nobita no Nejimaki City Boukenki
  517. Doraemon Movie 19: Nobita no Nankai Daibouken
  518. Doraemon Movie 20: Nobita no Uchuu Hyouryuuki
  519. Doraemon Movie 21: Nobita no Taiyou Ou Densetsu
  520. Doraemon Movie 22: Nobita to Tsubasa no Yuusha-tachi
  521. Doraemon Movie 23: Nobita to Robot Kingdom
  522. Doraemon Movie 24: Nobita to Fushigi Kaze Tsukai
  523. Doraemon Movie 25: Nobita no Wan Nyan Jikuuden
  524. Doraemon Movie 26: Nobita no Kyouryuu 2006
  525. Doraemon Movie 27: Nobita no Shin Makai Daibouken - 7-nin no Mahoutsukai
  526. Doraemon Movie 28: Nobita to Midori no Kyojin Den
  527. Doraemon Movie 29: Shin Nobita no Uchuu Kaitakushi
  528. Doraemon Movie 30: Nobita no Ningyo Daikaisen
  529. Doraemon Movie 31: Shin Nobita to Tetsujin Heidan - Habatake Tenshi-tachi
  530. Doraemon Movie 32: Nobita to Kiseki no Shima - Animal Adventure
  531. Doraemon Movie 33: Nobita no Himitsu Dougu Museum
  532. Doraemon Movie 34: Shin Nobita no Daimakyou - Peko to 5-nin no Tankentai
  533. Doraemon Movie 36: Shin Nobita no Nippon Tanjou
  534. Doraemon Movie 37: Nobita no Nankyoku Kachikochi Daibouken
  535. Doraemon Movie 38: Nobita no Takarajima
  536. Doraemon Movie 39: Nobita no Getsumen Tansaki
  537. Doraemon Movie: Boku, Momotarou no Nanna no Sa
  538. Doraemon: Ganbare! Gian!!
  539. Doraemon: It's Autumn!
  540. Doraemon: It's Spring!
  541. Doraemon: It's Summer!
  542. Doraemon: It's Winter!
  543. Doraemon: Nobita to Mirai Note
  544. Doraemon: Time Machine de Oshougatsu
  545. Doraemon: Treasure of the Shinugumi Mountain
  546. Dorami & Doraemons: Space Land's Critical Event
  547. not available in English Dorimogu Daa!!
  548. Dororo
  549. Dororo to Hyakkimaru
  550. not available in English Dou Hun Wei: Xuan Yue Qiyuan
  551. not available in English Dou Hun Wei: Xuan Yue Qiyuan 2
  552. not available in English Dou Hun Wei: Xuan Yue Qiyuan 3
  553. Doubutsu Takarajima
  554. Douluo Dalu
  555. Douluo Dalu: Hao Tian Yang Wei
  556. Douluo Dalu: Jingying Sai
  557. Douluo Dalu: Qian Hua Xi Jin
  558. ongoing Douluo Dalu: Xiaowu Juebie
  559. Doupo Cangqiong
  560. Doupo Cangqiong 2nd Season
  561. Doupo Cangqiong 2nd Season Specials
  562. Doupo Cangqiong 3rd Season
  563. Doupo Cangqiong Specials
  564. Down Load: Namu Amida Butsu wa Ai no Uta
  565. Dr. Stone
  566. Dragon Ball
  567. Dragon Ball GT
  568. Dragon Ball GT: Gokuu Gaiden! Yuuki no Akashi wa Suushinchuu
  569. Dragon Ball Kai
  570. Dragon Ball Kai (2014)
  571. Dragon Ball Movie 1: Shen Long no Densetsu
  572. Dragon Ball Movie 2: Majinjou no Nemurihime
  573. Dragon Ball Movie 3: Makafushigi Daibouken
  574. Dragon Ball Movie 4: Saikyou e no Michi
  575. Dragon Ball Super
  576. Dragon Ball Super Movie: Broly
  577. Dragon Ball Z
  578. Dragon Ball Z Movie 01: Ora no Gohan wo Kaese!!
  579. Dragon Ball Z Movie 02: Kono Yo de Ichiban Tsuyoi Yatsu
  580. Dragon Ball Z Movie 03: Chikyuu Marugoto Choukessen
  581. Dragon Ball Z Movie 04: Super Saiyajin da Son Gokuu
  582. Dragon Ball Z Movie 05: Tobikkiri no Saikyou tai Saikyou
  583. Dragon Ball Z Movie 06: Gekitotsu!! 100-oku Power no Senshi-tachi
  584. Dragon Ball Z Movie 07: Kyokugen Battle!! Sandai Super Saiyajin
  585. Dragon Ball Z Movie 08: Moetsukiro!! Nessen, Ressen, Chougekisen
  586. Dragon Ball Z Movie 09: Ginga Girigiri!! Bucchigiri no Sugoi Yatsu
  587. Dragon Ball Z Movie 10: Kiken na Futari! Super Senshi wa Nemurenai
  588. Dragon Ball Z Movie 11: Super Senshi Gekiha!! Katsu no wa Ore da
  589. Dragon Ball Z Movie 12: Fukkatsu no Fusion!! Gokuu to Vegeta
  590. Dragon Ball Z Movie 13: Ryuuken Bakuhatsu!! Gokuu ga Yaraneba Dare ga Yaru
  591. Dragon Ball Z Movie 14: Kami to Kami
  592. Dragon Ball Z Movie 15: Fukkatsu no "F"
  593. Dragon Ball Z Special 1: Tatta Hitori no Saishuu Kessen
  594. Dragon Ball Z Special 2: Zetsubou e no Hankou!! Nokosareta Chousenshi - Gohan to Trunks
  595. Dragon Ball Z: Atsumare! Gokuu World
  596. Dragon Ball Z: Saiya-jin Zetsumetsu Keikaku
  597. Dragon Ball Z: Summer Vacation Special
  598. Dragon Ball: Episode of Bardock
  599. Dragon Ball: Ossu! Kaettekita Son Gokuu to Nakama-tachi!!
  600. Dragon Ball: Super Saiya-jin Zetsumetsu Keikaku
  601. Dragon Drive
  602. hentai Dragon Knight 4
  603. not available in English Dragon League
  604. hentai Dragon Pink
  605. Dragon Quest Retsuden: Roto no Monshou
  606. not available in English Dragon Quest: Abel Yuusha Densetsu
  607. Dragon Quest: Dai no Daibouken
  608. Dragon Quest: Dai no Daibouken (TV)
  609. Dragon Quest: Dai no Daibouken Buchiyabure!! Shinsei 6 Daishougun
  610. Dragon Quest: Dai no Daibouken Tachiagare!! Aban no Shito
  611. Dragon Quest: Your Story
  612. Dragon's Heaven
  613. Dragoon
  614. Drifters
  615. Drifters (OVA)
  616. Drifters: Special Edition
  617. Drifters: The Outlandish Knight
  618. Druaga no Tou: The Aegis of Uruk
  619. Druaga no Tou: The Aegis of Uruk - Jil no Bouken
  620. Druaga no Tou: The Sword of Uruk
  621. Duel Masters
  622. Duel Masters (2017)
  623. Duel Masters Charge
  624. Duel Masters Cross
  625. Duel Masters Cross Shock
  626. ongoing not available in English Duel Masters King
  627. Duel Masters Movie 1: Yami no Shiro no Maryuuou
  628. Duel Masters Movie 2: Lunatic God Saga
  629. Duel Masters Victory
  630. Duel Masters Victory V
  631. Duel Masters Victory V3
  632. Duel Masters VS
  633. Duel Masters VSR
  634. Duel Masters VSRF
  635. Duel Masters!
  636. not available in English Duel Masters!!
  637. Dungeon ni Deai wo Motomeru no wa Machigatteiru Darou ka
  638. Dungeon ni Deai wo Motomeru no wa Machigatteiru Darou ka Gaiden: Sword Oratoria
  639. Dungeon ni Deai wo Motomeru no wa Machigatteiru Darou ka II
  640. Dungeon ni Deai wo Motomeru no wa Machigatteiru Darou ka II OVA
  641. Dungeon ni Deai wo Motomeru no wa Machigatteiru Darou ka II: Past & Future
  642. Dungeon ni Deai wo Motomeru no wa Machigatteiru Darou ka Movie: Orion no Ya
  643. Dungeon ni Deai wo Motomeru no wa Machigatteiru Darou ka OVA
  644. E's Otherwise
  645. Early Reins
  646. Eat-Man
  647. Eat-Man '98
  648. Eden's Bowy
  649. ongoing Egg Car
  650. Eien no Aselia
  651. Eien no Filena
  652. not available in English Eigo de Asobo: Tanken Goblin Tou
  653. Eiyuu Banka Koushi-den
  654. Eiyuu Densetsu: Sora no Kiseki The Animation
  655. Eizouken ni wa Te wo Dasu na!
  656. El Cazador de la Bruja
  657. El Hazard 2: The Magnificent World
  658. El Hazard: The Alternative World
  659. El Hazard: The Magnificent World
  660. El Hazard: The Wanderers
  661. Elf 17
  662. Elf wo Karu Mono-tachi
  663. Elf wo Karu Mono-tachi II
  664. Elmer no Bouken: My Father's Dragon
  665. En En Nikoli
  666. Endride
  667. not available in English Entaku no Kishi Monogatari: Moero Arthur
  668. Erementar Gerad
  669. Escaflowne
  670. Eunhahamdae Jiguho
  671. Eunhajeonseol Tera
  672. Eureka Seven AO
  673. Eureka Seven AO: Jungfrau no Hanabana-tachi
  674. Eureka Seven AO: One More Time - Lord Don't Slow Me Down
  675. eX-Driver
  676. eX-Driver the Movie
  677. Explorer Woman Ray
  678. F-Zero: Falcon Densetsu
  679. Fairy Tail
  680. Fairy Tail (2014)
  681. Fairy Tail Movie 1: Houou no Miko
  682. Fairy Tail Movie 2: Dragon Cry
  683. Fairy Tail x Rave
  684. Fairy Tail: Final Series
  685. ongoing Fanren Xiu Xian Chuan Zhi Fanren Feng Qi Tian Nan
  686. Fantastic Children
  687. ongoing Fantastic World
  688. Fatal Fury 2: The New Battle
  689. Fatal Fury: Legend of the Hungry Wolf
  690. Fatal Fury: The Motion Picture
  691. ongoing Feng Ling Yu Xiu
  692. Feng Shu Zhan Jing
  693. Feng Shu Zhan Jing 2
  694. Feng Yu Zhou
  695. Feng Yun Jue
  696. Final Fantasy
  697. Final Fantasy VII: Last Order
  698. Final Fantasy: Unlimited
  699. Fire Emblem
  700. Firestorm
  701. Flip Flappers
  702. Fortune Dogs
  703. Fortune Quest L
  704. Fortune Quest: Yo ni mo Shiawase na Boukensha-tachi
  705. Fox Wood Monogatari
  706. Fractale
  707. Freedom
  708. Frypan Jiisan
  709. Fujiko F. Fujio: Sukoshi Fushigi Tanpen Theater
  710. Fullmetal Alchemist
  711. Fullmetal Alchemist: Brotherhood
  712. Fullmetal Alchemist: Brotherhood Specials
  713. Fullmetal Alchemist: Reflections
  714. Fullmetal Alchemist: The Sacred Star of Milos
  715. Fusha no Sha
  716. Fushigi na Koala Blinky
  717. Fushigi no Kuni no Alice
  718. Fushigi no Kuni no Alice Specials
  719. Fushigi no Umi no Nadia
  720. Fushigi no Umi no Nadia Omake Gekijou
  721. Fushigi no Umi no Nadia: Original Movie
  722. Fushigi Yuugi
  723. Fushigi Yuugi OVA
  724. Fushigi Yuugi: Dai Ni Bu
  725. Fushigi Yuugi: Eikouden
  726. not available in English Fushigina Ano Ko wa Sutekina Kono Ko
  727. Futari no Tarou
  728. Future GPX Cyber Formula
  729. Fuusen Inu Tinny
  730. Fuusen Inu Tinny 2nd Season
  731. Fuusen Inu Tinny: Nandaka Fushigi na - Kyouryuu no Kuni
  732. not available in English Fuusen Shoujo Temple-chan
  733. Fuusen Shoujo Temple-chan Movie
  734. Gad Guard
  735. Gaegujang-i Cheonsa-deul
  736. Gake no Ue no Ponyo
  737. Gakuen Senki Muryou
  738. Gakuen Senki Muryou Recap
  739. Gakuen Senki Muryou: Yorinuki Muryou-san Girls Selection
  740. not available in English Galactic Patrol Lensman
  741. Galerians: Rion
  742. Galilei Donna
  743. Gall Force 1: Eternal Story
  744. Gall Force: The Revolution
  745. Gamba no Bouken
  746. Gamba to Kawauso no Bouken
  747. Gamba: Gamba to Nakama-tachi
  748. Game Tengoku: The Game Paradise!
  749. Ganbare Swimmy
  750. not available in English Ganbare! Marine Kid
  751. Gatchaman
  752. Gatchaman Crowds
  753. Gatchaman Crowds Insight
  754. Gatchaman Crowds: Embrace
  755. Gate: Jieitai Kanochi nite, Kaku Tatakaeri
  756. Gate: Jieitai Kanochi nite, Kaku Tatakaeri 2nd Season
  757. Gear Fighter Dendoh
  758. Ged Senki
  759. Gegege no Kitarou (1968 Movie)
  760. not available in English Gegege no Kitarou (1968)
  761. not available in English Gegege no Kitarou (1971)
  762. Gegege no Kitarou (1985 Movie)
  763. Gegege no Kitarou (1996)
  764. Gegege no Kitarou: Gekitotsu!! Ijigen Youkai no Daihanran
  765. Gegege no Kitarou: Jigoku-hen
  766. Gegege no Kitarou: Saikyou Youkai Gundan! Nippon Jouriku!!
  767. Gegege no Kitarou: Youkai Daisensou
  768. Gegege no Kitarou: Youkai Tokkyuu! Maboroshi no Kisha
  769. not available in English Gene Diver
  770. Genei Toushi Bastof Lemon
  771. Generation of Chaos
  772. Generation of Chaos III: Toki no Fuuin
  773. Generation of Chaos Next: Chikai no Pendant
  774. Generator Gawl
  775. Geneshaft
  776. Genma Taisen
  777. Genma Taisen: Shinwa Zenya no Shou
  778. Genmu Senki Leda
  779. Gensei Shugoshin P-hyoro Ikka
  780. Gensei Shugoshin P-hyoro Ikka OVA
  781. Genshi Shounen Ryuu
  782. Gensou Jotan Ellcia
  783. Gensoumaden Saiyuuki
  784. Gensoumaden Saiyuuki Movie: Requiem - Erabarezaru Mono e no Chinkonka
  785. Gensoumaden Saiyuuki OVA
  786. Gensoumaden Saiyuuki: Kibou no Zaika
  787. Geobreeders 2: Mouryou Yuugekitai File-XX Ransen Toppa
  788. Geobreeders: File-X Chibi Neko Dakkan
  789. Get Ride! AMDriver
  790. not available in English Getter Robo Go
  791. Giant Gorg
  792. Gin no Guardian
  793. Gin no Guardian II
  794. Ginga Densetsu Weed
  795. Ginga Hyouryuu Vifam
  796. Ginga Hyouryuu Vifam 13
  797. Ginga Hyouryuu Vifam Recaps
  798. Ginga Hyouryuu Vifam: Keito no Kioku - Namida no Dakkai Sakusen
  799. Ginga Hyouryuu Vifam: Kieta 12-nin
  800. Ginga Nagareboshi Gin
  801. Ginga Ojousama Densetsu Yuna: Kanashimi no Siren
  802. Ginga Ojousama Densetsu Yuna: Shin'en no Fairy
  803. not available in English Ginga Reppuu Baxingar
  804. Ginga Sengoku Gunyuuden Rai
  805. Ginga Senpuu Braiger
  806. not available in English Ginga Shippuu Sasuraiger
  807. Ginga Tansa 2100-nen: Border Planet
  808. Ginga Tetsudou 999
  809. Ginga Tetsudou 999 (Movie)
  810. not available in English Ginga Tetsudou 999 (ONA)
  811. not available in English Ginga Tetsudou 999: Akai Hoshi Betelgeuze - Inochi no Kagayaki
  812. not available in English Ginga Tetsudou 999: Diamond Ring no Kanata e
  813. not available in English Ginga Tetsudou 999: Jikuu wo Koeta Energy no Tabi
  814. not available in English Ginga Tetsudou 999: Shounen no Tabidachi to Wakare
  815. Ginga Tetsudou Monogatari
  816. Ginga Tetsudou Monogatari: Eien e no Bunkiten
  817. Giniro no Kami no Agito
  818. Giniro no Olynsis: Tokito
  819. Glass no Kantai: La Legende du Vent de l'Univers
  820. Glass no Kantai: La Legende du Vent de l'Univers Specials
  821. Go-chan.: Moko to Chinjuu no Mori no Nakama-tachi
  822. Go-chan.: Moko to Koori no Ue no Yakusoku
  823. ongoing Go! Go! Atom
  824. Goblin Slayer
  825. Goblin Slayer: Bouken Kiroku Youshi - Adventure Sheet
  826. Goblin Slayer: Goblin's Crown
  827. Godzilla 1: Kaijuu Wakusei
  828. Godzilla 2: Kessen Kidou Zoushoku Toshi
  829. Godzilla 3: Hoshi wo Kuu Mono
  830. Gokudou-kun Manyuuki
  831. Gold Pencil And Alien Boy
  832. Golden Boy
  833. Golden Kamuy
  834. Golden Kamuy 2nd Season
  835. Golden Kamuy 2nd Season OVA
  836. Golden Kamuy OVA
  837. Golgo 13
  838. Golgo 13 (TV)
  839. Golgo 13: Queen Bee
  840. Gon
  841. Gon 2nd Season
  842. Gongitsune
  843. Gonglyong Mecard
  844. Gongnyong Baengmannyeon Ttori
  845. Gosho Aoyama's Collection of Short Stories
  846. not available in English Gowapper 5 Gordam
  847. GR: Giant Robo
  848. Granblue Fantasy The Animation
  849. Granblue Fantasy The Animation Season 2
  850. Granblue Fantasy The Animation Season 2 Extras
  851. Grandeek
  852. Grander Musashi RV
  853. Greed
  854. Greek Roman Sinhwa: Olympus Guardian
  855. Greek Roman Sinhwa: Olympus Guardian (Movie)
  856. Green Legend Ran
  857. Green Saver
  858. Grenadier: Hohoemi no Senshi
  859. Grick no Bouken
  860. Grimm Douwa: Kin no Tori
  861. not available in English Grimm Masterpiece Theater II
  862. Grimm Meisaku Gekijou
  863. Grimms Notes The Animation
  864. Groove Adventure Rave
  865. Guin Saga
  866. Gulliver no Uchuu Ryokou
  867. Gun Frontier
  868. Gun x Sword
  869. Gun-dou Musashi
  870. Gun-dou Musashi Recap
  871. GUNbare! Game Tengoku: The Game Paradise 2
  872. not available in English Gundam Neo Experience 0087: Green Divers
  873. Gunjou no Magmell
  874. Guruguru Petit Anime Gekijou
  875. Gyouten Ningen Batsealer
  876. Haedori Daemoheom
  877. Hagane Orchestra
  878. Haha wo Tazunete Sanzenri
  879. Haha wo Tazunete Sanzenri (Movie)
  880. Haha wo Tazunete Sanzenri (Special)
  881. Haha wo Tazunete Sanzenri Specials
  882. Hai to Gensou no Grimgar
  883. Haja Taisei Dangaiou
  884. Hajimari no Boukensha-tachi: Legend of Crystania
  885. Hakken Taiken Daisuki! Shimajirou
  886. Hakugei Densetsu
  887. Hakujaden
  888. Hakumei no Tsubasa
  889. Hakushaku to Yousei
  890. Hakushaku to Yousei Specials
  891. Hakyuu Houshin Engi
  892. Hakyuu Houshin Engi Recap
  893. Hakyuu Houshin Engi: Kou-ke no Chi
  894. Hal no Fue
  895. Hamelin no Violin Hiki
  896. Hamelin no Violin Hiki: The Movie
  897. Hamuko Mairu!
  898. Hana Ichi Monme (OVA)
  899. Hana no Asukagumi! 2: Lonely Cats Battle Royale
  900. Hana no Ko Lunlun
  901. Hana no Mahoutsukai Mary Bell
  902. Hana no Mahoutsukai Mary Bell: Phoenix no Kagi
  903. Hanare Toride no Yonna
  904. Hanasaku Kizuna no Romantan
  905. Hangyakusei Million Arthur
  906. Hangyakusei Million Arthur 2nd Season
  907. Hangyakusei Million Arthur Special
  908. Haou Daikei Ryuu Knight: Adeu Legend Final
  909. Haou Daikei Ryuu Knight: Adeu Legend II
  910. Haou Taikei Ryuu Knight
  911. Haou Taikei Ryuu Knight: Adeu Legend
  912. Happy☆Lucky Bikkuriman
  913. Harbor Tale
  914. Harukanaru Toki no Naka de: Ajisai Yumegatari
  915. Hashire Melos
  916. Hashire Melos (Movie)
  917. Hatenkou Yuugi
  918. Hatsumei Boy Kanipan
  919. Hayan Ma-eum Baeggu
  920. not available in English Hazedon
  921. HeatGuy J
  922. HeatGuy J Special
  923. Hei Mao Jing Zhang
  924. not available in English Hei Mao Jing Zhang (1992)
  925. not available in English Heisei Inu Monogatari Bow
  926. Heisei Inu Monogatari Bow Movie
  927. Hello Kitty no Oyayubi-hime
  928. not available in English Hello! Sandybell
  929. Hells
  930. Hengen Taima Yakou Karura Mau! Nara Onryou Emaki
  931. Herlock Saga: Nibelung no Yubiwa
  932. Hero Hero-kun
  933. Heungnyong Wang gwa Bihodongja
  934. Hey Yo Yorang
  935. not available in English Hey! Bumboo
  936. Hi no Tori
  937. Hi no Tori 2772: Ai no CosmoZone
  938. Hikyou Tanken Fam & Ihrlie
  939. Himalaya no Hikari no Oukoku
  940. Himawari!
  941. Himiko-den
  942. Himitsukessha Taka no Tsume THE PLANETARIUM: Burabura! Black Hole no Nazo
  943. Hinata no Aoshigure
  944. Hinomaru!
  945. Hirune Hime: Shiranai Watashi no Monogatari
  946. Hitomi no Naka no Shounen: Juugo Shounen Hyouryuuki
  947. Hitsugi no Chaika
  948. Hitsugi no Chaika OVA
  949. Hitsugi no Chaika: Avenging Battle
  950. not available in English Hoero! Bun Bun
  951. Hokkyoku no Muushika Miishika
  952. Hokuto no Ken Movie
  953. Hokuto no Ken: Raoh Gaiden Gekitou-hen
  954. Hokuto no Ken: Raoh Gaiden Junai-hen
  955. Hokuto no Ken: Yuria-den
  956. not available in English Honey Honey no Suteki na Bouken
  957. Hong Gil Dong 2084
  958. Hong Haier: Juezhan Huoyanshan
  959. not available in English Hong Kil-dong
  960. Honoo no Labyrinth
  961. not available in English Hopiwa Chadolbawi
  962. Hoshi ni Negai wo: Cold Body + Warm Heart
  963. Hoshi ni Negai wo: Fantastic Cat
  964. Hoshi no Kirby
  965. not available in English Hoshi no Ko Chobin
  966. Hoshi no Oujisama Petit Prince
  967. Hoshi no Oujisama Petit☆Prince Specials
  968. Hoshi no Shima no Nyanko
  969. Hoshi no Umi no Amuri
  970. Hoshi no Yuuenchi
  971. Hoshi wo Ou Kodomo
  972. Howl no Ugoku Shiro
  973. Hua Jiang Hu Zhi Bu Liang Ren
  974. Hua Jiang Hu Zhi Bu Liang Ren 2nd Season
  975. Hua Jianghu Zhi Bei Mo Ting
  976. Huan Jie Wang
  977. not available in English Huckleberry Finn Monogatari
  978. not available in English Huckleberry no Bouken
  979. Huckleberry no Bouken (Movie)
  980. Hulu Xiao Jin Gang
  981. Hunter x Hunter
  982. Hunter x Hunter (2011)
  983. Hunter x Hunter Movie 1: Phantom Rouge
  984. Hunter x Hunter Movie 2: The Last Mission
  985. Hunter x Hunter Pilot
  986. Hunter x Hunter: Greed Island
  987. Hunter x Hunter: Greed Island Final
  988. Hunter x Hunter: Original Video Animation
  989. Huoli Shaonian Wang zhi Chuanqi Zaixian: Xuji
  990. Hurricane Polymar
  991. Hwanggeum Cheolin
  992. Hyakujuu-Ou GoLion
  993. Hyokkori Hyoutan Shima
  994. Hyper-Psychic Geo Garaga
  995. Iczer-Girl Iczelion
  996. Idol Project
  997. Ie Naki Ko
  998. Ie Naki Ko (Movie)
  999. Ie Naki Ko Remy
  1000. Ie Naki Ko Remy Specials
  1001. Ie Naki Ko Remy Specials (2001)
  1002. Igano Kabamaru
  1003. not available in English Ikinari Dagon
  1004. Ima, Soko ni Iru Boku
  1005. Imanara Maniau! Log Horizon
  1006. hentai Injuu Alien
  1007. Innocent Venus
  1008. Interlude
  1009. Interstella5555: The 5tory of The 5ecret 5tar 5ystem
  1010. InuYasha (TV)
  1011. InuYasha (TV): Kanketsu-hen
  1012. not available in English InuYasha (TV): Kuroi Tessaiga
  1013. InuYasha Movie 1: Toki wo Koeru Omoi
  1014. InuYasha Movie 2: Kagami no Naka no Mugenjo
  1015. InuYasha Movie 3: Tenka Hadou no Ken
  1016. InuYasha Movie 4: Guren no Houraijima
  1017. not available in English Ippatsu Kanta-kun
  1018. Iria: Zeiram The Animation
  1019. Iron Kid
  1020. not available in English Iruka to Shounen
  1021. Isekai Cheat Magician
  1022. Isekai wa Smartphone to Tomo ni.
  1023. Itai no wa Iya nano de Bougyoryoku ni Kyokufuri Shitai to Omoimasu.
  1024. Izumo
  1025. hentai Izumo (2003)
  1026. Izumo: Takeki Tsurugi no Senki
  1027. Jagainu-kun
  1028. JaJa Uma! Quartet
  1029. Jam the Housnail
  1030. not available in English Jankenman
  1031. Jarujio Animal
  1032. not aired yet Jiang Ziya
  1033. Jibaku-kun
  1034. Jigen Sengokushi: Kuro no Shishi - Jinnai-hen
  1035. Jigoku Sensei Nube
  1036. Jigoku Sensei Nube (Movie)
  1037. Jigoku Sensei Nube: Gozen 0 Ji Nube Shisu!
  1038. Jikuu Boukenki Zentrix
  1039. Jikuu Tantei Genshi-kun
  1040. Jikuu Tenshou Nazca
  1041. not available in English Jim Button
  1042. Jingi
  1043. Jingju Mao
  1044. Jingju Mao Zhi Cheng Feng Polang
  1045. ongoing Jingju Mao Zhi Jiaota Shidi
  1046. Jingju Mao Zhi Xinnian de Maoxian
  1047. ongoing Jinxiu Shenzhou Zhi Qi You Ji
  1048. not available in English Johnny Cypher
  1049. JoJo no Kimyou na Bouken
  1050. JoJo no Kimyou na Bouken (TV)
  1051. JoJo no Kimyou na Bouken Part 3: Stardust Crusaders
  1052. JoJo no Kimyou na Bouken Part 3: Stardust Crusaders 2nd Season
  1053. JoJo no Kimyou na Bouken Part 4: Diamond wa Kudakenai
  1054. JoJo no Kimyou na Bouken Part 5: Ougon no Kaze
  1055. JoJo no Kimyou na Bouken Part 5: Ougon no Kaze Recaps
  1056. JoJo no Kimyou na Bouken: Adventure
  1057. not available in English JoJo no Kimyou na Bouken: Phantom Blood
  1058. Jormungand
  1059. Jormungand: Perfect Order
  1060. Jormungand: Perfect Order Recap
  1061. Ju Bing Chang Cheng Zhuan
  1062. Jue Ji
  1063. Jumbagi: Hanbandoui gongryong 3D
  1064. Jungle Book Shounen Mowgli
  1065. Jungle de Ikou!
  1066. Jungle Taitei
  1067. not available in English Jungle Taitei (1989)
  1068. Jungle Taitei Movie
  1069. Jungle Taitei Movie (1997)
  1070. Jungle Taitei: Susume Leo!
  1071. Jungle Taitei: Yuuki ga Mirai wo Kaeru
  1072. Jungle Wars
  1073. Junk Head
  1074. Juubee Ninpuuchou
  1075. Juubee Ninpuuchou: Ryuuhougyoku-hen
  1076. Juubee-chan 2: Siberia Yagyuu no Gyakushuu
  1077. Juubee-chan: Lovely Gantai no Himitsu
  1078. Juugo Shounen Hyouryuuki
  1079. Juugo Shounen Hyouryuuki: Kaizokujima de! Daibouken
  1080. Juuippiki no Neko to Ahoudori
  1081. Juuni Kokuki
  1082. Juusen Battle Monsuno
  1083. Juusenki L-Gaim
  1084. Juusenki L-Gaim I: Pentagona Window + Lady Gavlet
  1085. Juusenki L-Gaim II: Farewell My Lovely + Pentagona Dolls
  1086. Jyu Oh Sei
  1087. Kachou Ouji
  1088. not available in English Kagaku Bouken-tai Tansar 5
  1089. Kagaku Kyuujo-tai TechnoVoyager
  1090. Kagaku Ninja-tai Gatchaman
  1091. Kagaku Ninja-tai Gatchaman (Movie)
  1092. Kagaku Ninja-tai Gatchaman F
  1093. Kagaku Ninja-tai Gatchaman II
  1094. not available in English Kagee Aesop Monogatari
  1095. not available in English Kagee Grimm Douwa
  1096. not available in English Kagee Mukashibanashi
  1097. Kai: Geoul Hosu-ui Jeonseol
  1098. Kaiba
  1099. not available in English Kaiketsu Tamagon
  1100. Kaiketsu Zorori
  1101. Kaiketsu Zorori Da-Da-Da-Daibouken!
  1102. Kaiketsu Zorori Movie: Uchuu no Yuusha-tachi
  1103. not available in English Kaiketsu Zorori Movie: ZZ no Himitsu
  1104. not available in English Kaiketsu Zorori no Dragon Taiji
  1105. Kaiketsu Zorori: Mahoutsukai no Deshi/Dai Kaizoku no Takara Sagashi
  1106. Kaiketsu Zorori: Mamoru ze! Kyouryuu no Tamago
  1107. Kaiketsu Zorro
  1108. Kaitei Choutokkyuu: Marine Express
  1109. Kaitei Daisensou: Ai no 20,000 Miles
  1110. Kaitei Sanman Mile
  1111. not available in English Kaitei Shounen Marine
  1112. Kaitou Joker
  1113. Kaitou Joker 2nd Season
  1114. Kaitou Joker 3rd Season
  1115. Kaitou Joker 4th Season
  1116. not available in English Kaitou Pride
  1117. Kaitou Saint Tail
  1118. Kaitouranma The Animation
  1119. not available in English Kaizoku Ouji
  1120. Kakutou Ryouri Densetsu Bistro Recipe
  1121. Kaleido Star: Aratanaru Tsubasa - Extra Stage
  1122. Kamen Rider Den-O: Imagin Anime
  1123. Kamen Rider Den-O: Imagin Anime 2
  1124. Kamen Rider Den-O: Imagin Anime 3
  1125. Kami no Tou
  1126. Kamikaze Kaitou Jeanne
  1127. not available in English Kaminari Boy Pikkari★bee
  1128. Kamiusagi Rope tsuka, Natsuyasumi Rasuichi tte Maji ssuka!?
  1129. Kamui no Ken
  1130. Kanata no Astra
  1131. Kappa no Coo to Natsuyasumi
  1132. Kappa no Sanpei
  1133. Karakuri Circus (TV)
  1134. Karakuri Circus (TV): Makuai - Soshite Mata Kaimaku Bell
  1135. not available in English Karakuri Kengou Den Musashi Lord
  1136. Karakuri Kiden: Hiwou Senki
  1137. Karasu Tengu Kabuto
  1138. Karasu Tengu Kabuto: Ougon no Me no Kemono
  1139. not available in English Karate Baka Ichidai
  1140. Karl to Fushigi na Tou
  1141. Kashi no Ki Mokku
  1142. Katanagatari
  1143. Katta-kun Monogatari
  1144. Kawa no Hikari
  1145. Kaze no Tairiku
  1146. Kaze no Tani no Nausicaä
  1147. Kaze wo Mita Shounen
  1148. Kazemakase Tsukikage Ran
  1149. Kazoku Robinson Hyouryuuki: Fushigi na Shima no Flone
  1150. Kazoku Robinson Hyouryuuki: Fushigi na Shima no Flone Specials
  1151. Kedama no Gonjirou
  1152. Kekkaishi (TV)
  1153. Kekkaishi (TV): Yoshimori no Omoi
  1154. Kemono Friends
  1155. Kemono Friends 2
  1156. Kemono no Souja Erin Recaps
  1157. Kemurikusa
  1158. Kemy Lang Buka Chaka
  1159. Kemy Tamheomdae
  1160. Ken En Ken: Aoki Kagayaki
  1161. Kennosuke-sama
  1162. Kenpuu Denki Berserk
  1163. Kenran Butou Sai: The Mars Daybreak
  1164. Kenritsu Chikyuu Boueigun
  1165. Kero Kero Chime
  1166. Kero Kero Keroppi no Daibouken: Fushigi na Mame no Ki
  1167. Kero Kero Keroppi no Gulliver no Bouken
  1168. Kero Kero Keroppi no Sora wo Tobetara
  1169. Kero Kero Keroppi no Yowamushi-ouji no Daibouken
  1170. Keroro Gunsou Movie 2: Shinkai no Princess de Arimasu!
  1171. Keroro Gunsou: KeroZero Shupattsudayo! Zeninshuugou!
  1172. Ki-Fighter Taerang
  1173. Kiba
  1174. Kidou Shinsengumi Moeyo Ken
  1175. Kidou Shinsengumi Moeyo Ken TV
  1176. Kikaider 01 The Animation
  1177. Kiko-chan Smile
  1178. Kikou Kantai Dairugger XV
  1179. Kikou Senki Dragonar
  1180. Kiku-chan to Ookami
  1181. Kindan no Mokushiroku: Crystal Triangle
  1182. not available in English King Kong: 001/7 Tom Thumb
  1183. King of Fighters: Another Day
  1184. not available in English Kinkyuu Hasshin Saver Kids
  1185. not available in English Kinnikuman
  1186. Kino no Tabi: The Beautiful World
  1187. Kino no Tabi: The Beautiful World - Byouki no Kuni - For You
  1188. Kino no Tabi: The Beautiful World - Nanika wo Suru Tame ni - Life Goes On.
  1189. Kino no Tabi: The Beautiful World - The Animated Series
  1190. Kino no Tabi: The Beautiful World - The Animated Series - Haikyo no Kuni - On Your Way
  1191. Kishin Heidan
  1192. Kizuoibito
  1193. Kkomaeosa Ttori
  1194. Kkurukkuru-wa Chingu-deul
  1195. Knights of the Zodiac: Saint Seiya
  1196. KO Seiki Beast Sanjuushi
  1197. Kodai Ouja Kyouryuu King
  1198. Kodai Ouja Kyouryuu King: Yokuryuu Densetsu
  1199. Kogane no Hana
  1200. not available in English Koguma no Misha
  1201. Koihime†Musou
  1202. Koisuru Tenshi Angelique: Kokoro no Mezameru Toki
  1203. Komachi to Dangorou
  1204. not available in English Konchuu Monogatari Minashigo Hutch
  1205. not available in English Konchuu Monogatari Minashigo Hutch (1989)
  1206. Konchuu Monogatari Mitsubachi Hutch: Yuuki no Melody
  1207. Konglong Baobei Zhi Longshen Yongshi
  1208. Konglong Baobei Zhi Longshen Yongshi 2
  1209. Konglong Baobei Zhi Longshen Yongshi 3
  1210. Konjiki no Gash Bell!!
  1211. Konjiki no Gash Bell!!: 101 Banme no Mamono
  1212. Konjiki no Gash Bell!!: Hashire Gash!! Ubawareta Umagon
  1213. Konjiki no Gash Bell!!: Mecha Vulkan no Raishuu
  1214. Konjiki no Gash Bell!!: Ougon no Chichi wo Motsu Otoko
  1215. Kono Subarashii Sekai ni Shukufuku wo!
  1216. Kono Subarashii Sekai ni Shukufuku wo! 2
  1217. Kono Subarashii Sekai ni Shukufuku wo! 2: Kono Subarashii Geijutsu ni Shukufuku wo!
  1218. Kono Subarashii Sekai ni Shukufuku wo!: Kono Subarashii Choker ni Shukufuku wo!
  1219. Kono Subarashii Sekai ni Shukufuku wo!: Kurenai Densetsu
  1220. Kosuke-sama Rikimaru-sama: Konpeitou no Ryuu
  1221. Kotencotenco
  1222. Kouchuu Ouja Mushiking Super Battle Movie: Yami no Kaizou Kouchuu
  1223. Koukyoushihen Eureka Seven
  1224. Koukyoushihen Eureka Seven Hi-Evolution 1
  1225. Koukyoushihen Eureka Seven Hi-Evolution 2: Anemone
  1226. Koukyoushihen Eureka Seven: New Order
  1227. Koukyoushihen Eureka Seven: Pocket ga Niji de Ippai
  1228. Kouryuu Densetsu Villgust
  1229. Koutetsu Sangokushi
  1230. Koutetsu Tenshi Kurumi
  1231. Kouya no Kotobuki Hikoutai
  1232. Kouya no Kotobuki Hikoutai Gaiden: Oozora no Harukaze Hikoutai
  1233. not available in English Kouya no Shounen Isamu
  1234. Ku Pao Ying Xiong
  1235. Kuiba II: Dazhan Yuan Yang Jie
  1236. Kuiba III: Zhanshen Jueqi
  1237. Kuiba Yao Xia Zhuan
  1238. Kuiba: Zhi Shiwanhuoji
  1239. not available in English Kujira no Josephina
  1240. not available in English Kujiratori
  1241. Kumo no You ni Kaze no You ni
  1242. Kurenai no Buta
  1243. Kurogane Communication
  1244. Kushimitama Samurai
  1245. Kuusou Kagaku Sekai Gulliver Boy
  1246. Kuutei Dragons
  1247. Kwaegeol Longman Narongi
  1248. Kyoro-chan
  1249. Kyou kara Maou!
  1250. Kyou kara Maou! 3rd Series
  1251. Kyou kara Maou! R
  1252. Kyou Kara Maou! Recap
  1253. Kyoufu no Bio Ningen Saishuu Kyoushi
  1254. Kyouryuu Boukenki Jura Tripper
  1255. not available in English Kyouryuu Wakusei
  1256. Kyoushoku Soukou Guyver (2005)
  1257. Kyoushoku Soukou Guyver II
  1258. Kyuumei Senshi Nanosaver
  1259. L/R: Licensed by Royal
  1260. L/R: Licensed by Royal Special
  1261. not available in English La Seine no Hoshi
  1262. Lalala Lala-chan
  1263. Lalala Lala-chan ★Uchuu ni Muchuu★
  1264. Lalala Lala-chan: Lala to Mainichi
  1265. Lalala Lala-chan: Patapata Daisensou
  1266. Lan Mao
  1267. Landlock
  1268. Landreaall
  1269. Last Exile
  1270. Last Exile: Ginyoku no Fam
  1271. Last Exile: Ginyoku no Fam - Adjournment
  1272. Last Exile: Ginyoku no Fam Movie - Over the Wishes
  1273. Last Period: Owarinaki Rasen no Monogatari
  1274. Layton Kyouju to Eien no Utahime
  1275. Legend of Basara
  1276. Legend of Crystania
  1277. Legend of Lemnear: Kyokuguro no Tsubasa Valkisas
  1278. Legend of the Moles: The Frozen Horror
  1279. Legend of the Moles: The Treasure of Scylla
  1280. Legendz: Yomigaeru Ryuuou Densetsu
  1281. Licca-chan Fushigi na Fushigi na Yunia Monogatari
  1282. Licca-chan Fushigi na Mahou no Ring
  1283. Licca-chan no Nichiyoubi
  1284. Licca-chan to Yamaneko Hoshi no Tabi
  1285. Lily to Kaeru to (Otouto)
  1286. Ling Jian Zun
  1287. Little Charo 4: Eigo de Aruku New York
  1288. not available in English Little El Cid no Bouken
  1289. Little Nemo
  1290. Little Polar Bear: Shirokuma-kun, Doko e?
  1291. not available in English Little Polar Bear: Shirokuma-kun, Fune ni Noru
  1292. Little Twins
  1293. Little Twins: Bokura no Natsu ga Tondeiku
  1294. Little Witch Academia
  1295. Little Witch Academia (TV)
  1296. Little Witch Academia: Mahoujikake no Parade
  1297. ongoing Liv & Bell
  1298. Lodoss-tou Senki
  1299. Lodoss-tou Senki: Eiyuu Kishi Den
  1300. Log Horizon
  1301. Log Horizon 2nd Season
  1302. Long Zai Na Li
  1303. Long Zhi Gu: Jingling Wangzuo
  1304. Long Zhi Gu: Poxiao Qibing
  1305. Lost Universe
  1306. Love Hina Haru Special: Kimi Sakura Chiru Nakare!!
  1307. Lu Shidai
  1308. Lu Shidai 2nd Season
  1309. Lulin Da Maoxian
  1310. Lulin Da Maoxian zhi Tangguo Shijie
  1311. Lupin III
  1312. Lupin III (2015)
  1313. Lupin III (2015) Specials
  1314. Lupin III (2015): Italian Game
  1315. Lupin III vs. Detective Conan
  1316. Lupin III: $1 Money Wars
  1317. Lupin III: Ai no Da Capo - Fujiko's Unlucky Days
  1318. Lupin III: Alcatraz Connection
  1319. Lupin III: Babylon no Ougon Densetsu
  1320. Lupin III: Bye Bye Liberty - Kiki Ippatsu!
  1321. Lupin III: Cagliostro no Shiro
  1322. Lupin III: Chi no Kokuin - Eien no Mermaid
  1323. Lupin III: Dead or Alive
  1324. Lupin III: Episode 0 "First Contact"
  1325. Lupin III: Fuuma Ichizoku no Inbou
  1326. Lupin III: Goodbye Partner
  1327. Lupin III: Green vs. Red
  1328. Lupin III: Harimao no Zaihou wo Oe!!
  1329. Lupin III: Hemingway Paper no Nazo
  1330. Lupin III: Honoo no Kioku - Tokyo Crisis
  1331. Lupin III: Ikiteita Majutsushi
  1332. Lupin III: Kiri no Elusive
  1333. Lupin III: Kutabare! Nostradamus
  1334. Lupin III: Lupin Ansatsu Shirei
  1335. Lupin III: Lupin vs. Fukusei-ningen
  1336. Lupin III: Lupin wa Ima mo Moete Iru ka?
  1337. Lupin III: Moeyo Zantetsuken!
  1338. Lupin III: Napoleon no Jisho wo Ubae
  1339. Lupin III: Nusumareta Lupin
  1340. Lupin III: Otakara Henkyaku Daisakusen!!
  1341. Lupin III: Part 5
  1342. Lupin III: Part II
  1343. Lupin III: Part III
  1344. Lupin III: Princess of the Breeze - Kakusareta Kuuchuu Toshi
  1345. Lupin III: Prison of the Past
  1346. Lupin III: Russia yori Ai wo Komete
  1347. Lupin III: Seven Days Rhapsody
  1348. Lupin III: Sweet Lost Night - Mahou no Lamp wa Akumu no Yokan
  1349. Lupin III: Tenshi no Tactics - Yume no Kakera wa Koroshi no Kaori
  1350. Lupin III: The First
  1351. Lupin III: The Last Job
  1352. Lupin III: Touhou Kenbunroku - Another Page
  1353. Lupin III: Twilight Gemini no Himitsu
  1354. Lupin III: Walther P38
  1355. Lupin the IIIrd: Chikemuri no Ishikawa Goemon
  1356. Lupin the IIIrd: Jigen Daisuke no Bohyou
  1357. Lupin the IIIrd: Mine Fujiko no Uso
  1358. Lupin the Third: Mine Fujiko to Iu Onna
  1359. Lupin VIII
  1360. Mabeob Chunjamun
  1361. Mabeob Chunjamun Season 2
  1362. not available in English Maboroshi Mabo-chan
  1363. Mach GoGoGo
  1364. Mach GoGoGo (1997)
  1365. Macross 7
  1366. Macross 7 Movie: Ginga ga Ore wo Yondeiru!
  1367. Macross Dynamite 7
  1368. Macross II: Lovers Again
  1369. Macross Plus Movie Edition
  1370. Macross Zero
  1371. Madan no Ou to Vanadis
  1372. Madang-eul Naon Amtalg
  1373. Made in Abyss
  1374. Made in Abyss Movie 1: Tabidachi no Yoake
  1375. Made in Abyss Movie 2: Hourou Suru Tasogare
  1376. not available in English Made in Abyss Movie 3: Fukaki Tamashii no Reimei
  1377. Maegami Tarou
  1378. not available in English Maeterlinck no Aoi Tori: Tyltyl Mytyl no Bouken Ryokou
  1379. Mafukiden: Pandarian
  1380. Magi: Sinbad no Bouken
  1381. Magi: Sinbad no Bouken (TV)
  1382. Magi: The Kingdom of Magic
  1383. Magi: The Labyrinth of Magic
  1384. Magic Kaito
  1385. Magic Kaito 1412
  1386. Magic Knight Rayearth
  1387. Magic Knight Rayearth II
  1388. Magic Tree House
  1389. not available in English Magical Hat
  1390. not available in English Magical★Taruruuto-kun
  1391. Magical★Taruruuto-kun Movie
  1392. Magical★Taruruuto-kun: Moeru! Yuujou no Mahou Taisen
  1393. not available in English Magical★Taruruuto-kun: Sukisuki Takoyaki!
  1394. Mahou Sensei Negima! Movie: Anime Final
  1395. Mahou Sensei Negima!: Mou Hitotsu no Sekai
  1396. Mahou Sensei Negima!: Mou Hitotsu no Sekai Extra - Mahou Shoujo Yue♥
  1397. Mahou Sensei Negima!: Shiroki Tsubasa Ala Alba
  1398. Mahou Senshi Louie
  1399. Mahou Shoujo Lyrical Nanoha ViVid
  1400. hentai Mahou Shoujo Meruru
  1401. Mahou Shoujo Pretty Sammy Specials
  1402. Mahou Shoujo-tai Arusu
  1403. Mahou Shoujo-tai Arusu the Adventure
  1404. Mahou Yuugi 2D
  1405. Mahoujin Guru Guru Movie
  1406. Mahoujin Guruguru
  1407. Mahoujin Guruguru (2017)
  1408. not available in English Mahoutsukai Chappy
  1409. Mai Mai Shinko to Sennen no Mahou
  1410. Majime ni Fumajime Kaiketsu Zorori
  1411. Majime ni Fumajime Kaiketsu Zorori: Nazo no Otakara Daisakusen
  1412. Majo no Takkyuubin
  1413. Majutsushi Orphen
  1414. Majutsushi Orphen Hagure Tabi
  1415. Majutsushi Orphen Hagure Tabi: Tennin no Isan
  1416. Majutsushi Orphen: Revenge
  1417. Majuu Senshi Luna Varga
  1418. Makai Toshi Shinjuku
  1419. Makiba no Shoujo Katri
  1420. Makiba no Shoujo Katri Specials
  1421. Makyou Gaiden Le Deus
  1422. Malta no Bouken Season 3
  1423. Mamotte! Lollipop
  1424. Mang Huang Ji
  1425. Manga Aesop Monogatari
  1426. not available in English Manga Doushite Monogatari
  1427. Manga Doushite Monogatari OVA
  1428. not available in English Manga Furusato Mukashibanashi
  1429. not available in English Manga Hajimete Monogatari
  1430. Manga Hajimete Monogatari OVA
  1431. not available in English Manga Hajimete Omoshiro Juku
  1432. Manga Hajimete Omoshiro Juku OVA
  1433. not available in English Manga Naruhodo Monogatari
  1434. Manga Naruhodo Monogatari OVA
  1435. not available in English Manga Sarutobi Sasuke
  1436. not available in English Manga Sekai Mukashibanashi
  1437. Mangchi
  1438. Manie-Manie: Meikyuu Monogatari
  1439. Mao Yu Tao Hua Yuan
  1440. Maou-sama, Retry!
  1441. Maoyuu Maou Yuusha
  1442. Maoyuu Maou Yuusha: Kono Monogatari wa, Daniku dake Dewanai no Ja!
  1443. Maps
  1444. MAPS: Densetsu no Samayoeru Seijin-tachi
  1445. MÄR
  1446. Marco: Haha wo Tazunete Sanzenri
  1447. Marin X
  1448. Mary to Majo no Hana
  1449. Mashin Eiyuuden Wataru
  1450. Mashin Eiyuuden Wataru 2
  1451. ongoing Mashin Eiyuuden Wataru: Shichikon no Ryuujinmaru
  1452. not available in English Mashin Eiyuuden Wataru: Soukaizan Eiyuu Densetsu
  1453. Mask Masters
  1454. Masou Kishin Cybuster
  1455. Mass Effect: Paragon Lost
  1456. Master Keaton
  1457. Master Keaton OVA
  1458. Master Mosquiton
  1459. Master Mosquiton '99
  1460. Maze☆Bakunetsu Jikuu
  1461. Maze☆Bakunetsu Jikuu (TV)
  1462. Maze☆Bakunetsu Jikuu: Tenpen Kyoui no Giant
  1463. Mazinger Z tai Devilman
  1464. Mazinkaiser
  1465. Mazinkaiser SKL
  1466. Mecha Robot Corps 3
  1467. Medarot
  1468. Medarot Damashii
  1469. Megami Paradise
  1470. Megido 72: Nagaki Sen Tabi no Katawara de
  1471. hentai Mei King
  1472. not available in English Meiken Jolie
  1473. Meiken Lassie
  1474. Meiken Lassie Specials
  1475. Meiken Lassie: Yume ni Mukatte Hashire!
  1476. not available in English Meisaku World
  1477. Meisou-Ou Border
  1478. Meitantei Holmes
  1479. Meitantei Holmes: Aoi Ruby no Maki / Kaitei no Zaihou no Maki
  1480. Meitantei Holmes: Mrs. Hudson Hitojichi Jiken no Maki / Dover Kaikyou no Daikuuchuusen no Maki
  1481. Meitantei Rascal
  1482. Melty Lancer
  1483. not available in English Meme Iroiro Yume no Tabi
  1484. Meng Qi Shi Shen
  1485. Meng Ta: Xue Mi Cheng
  1486. Menghuan Xiyou
  1487. Menghuan Xiyou 2
  1488. Meoteoldosa
  1489. Meoteoldosawa 108 Yogoe
  1490. Meoteoldosawa Ttomae
  1491. Merc Storia: Mukiryoku no Shounen to Bin no Naka no Shoujo
  1492. Mermaid Melody Pichi Pichi Pitch
  1493. Mermaid Melody Pichi Pichi Pitch Pure
  1494. Metal Fight Beyblade
  1495. Metal Fight Beyblade 4D
  1496. Metal Fight Beyblade vs. Taiyou: Shakunetsu no Shinryakusha Sol Blaze
  1497. Metal Fight Beyblade Zero G
  1498. Metal Fight Beyblade Zero G Specials
  1499. Metal Fight Beyblade: Baku
  1500. Metropolis
  1501. ongoing Mewkledreamy
  1502. Mezzo DSA
  1503. Miao Xiansheng
  1504. Michiko to Hatchin
  1505. Michitekuru Toki no Mukou ni
  1506. Midnight Eye: Gokuu II
  1507. hentai Midnight Panther
  1508. Mighty Orbots
  1509. not available in English Minami no Niji no Lucy
  1510. Minami no Niji no Lucy Specials
  1511. Mind Game
  1512. Mini Yon Soldier Rin!
  1513. Miniforce
  1514. Minna ga Shitteru: Kokoro Atatamaru Natsukashii Ohanashi Series
  1515. Miracle Psychicer Seizan
  1516. Miraesonyeon Kunta Beomyuda 5000 Nyeon
  1517. Mirai no Mirai
  1518. Mirai Shounen Conan
  1519. Mirai Shounen Conan (Movie)
  1520. Mirai Shounen Conan 2: Taiga Daibouken
  1521. Mirai Shounen Conan: Kyodaiki Gigant no Fukkatsu
  1522. Mitsubachi Maya no Bouken
  1523. Mitsume ga Tooru
  1524. Miyanishi Tatsuya Gekijou: Omae Umasou da na
  1525. Mo Dao Zu Shi
  1526. Mo Jing Lieren
  1527. Mo Jing Lieren 2nd Season
  1528. Mo Jing Lieren 3rd Season
  1529. Mobile Fighter G Gundam
  1530. Mobile Suit Gundam 0083: Stardust Memory
  1531. Mobile Suit Gundam 0083: The Fading Light of Zeon
  1532. Mobile Suit Gundam I
  1533. Mobile Suit Gundam III: Encounters in Space
  1534. Mobile Suit Gundam Wing: Operation Meteor
  1535. Mobile Suit Gundam: The 08th MS Team
  1536. not available in English Moero Arthur: Hakuba no Ouji
  1537. not available in English Moeru! Oniisan
  1538. Mofa Ya Ma
  1539. Momonga-mon
  1540. not available in English Momotarou Densetsu
  1541. Monkateu
  1542. Monkey Magic
  1543. Monkey Punch: Manga Katsudou Daishashin
  1544. Mononoke Hime
  1545. Monpy
  1546. Monster Farm: Enbanseki no Himitsu
  1547. Monster Farm: Legend e no Michi
  1548. not available in English Montana Jones
  1549. Moonlight Mile 1st Season: Lift Off
  1550. Moonlight Mile 2nd Season: Touch Down
  1551. Mori no Densetsu
  1552. Mori no Ratio
  1553. Mori no Senshi Bonolon
  1554. not available in English Mori no Youki na Kobito-tachi: Belfy to Lillibit
  1555. Mother: Saigo no Shoujo Eve
  1556. ongoing Motto! Majime ni Fumajime Kaiketsu Zorori
  1557. Mouryou Senki Madara
  1558. Mugen no Juunin: Immortal
  1559. Mujigen Hunter Fandora
  1560. Mujin Wakusei Survive
  1561. not available in English Muka Muka Paradise
  1562. Muku Hatojuu no Meiken Monogatari
  1563. Murder Princess
  1564. Musekinin Kanchou Tylor OVA
  1565. Mushishi
  1566. Mushishi Zoku Shou
  1567. Mushishi Zoku Shou 2nd Season
  1568. Mushishi Zoku Shou: Odoro no Michi
  1569. Mushishi Zoku Shou: Suzu no Shizuku
  1570. Mushishi: Hihamukage
  1571. Mushrambo
  1572. Mushrambo (2008)
  1573. Mutant Turtles: Choujin Densetsu-hen
  1574. not available in English Muumin
  1575. not available in English Muumin (1972)
  1576. Muumindani no Suisei
  1577. Na Sa Er Ding
  1578. Naccio to Pomm
  1579. Nagagutsu Sanjuushi
  1580. Nagagutsu wo Haita Neko
  1581. not available in English Nagagutsu wo Haita Neko no Bouken
  1582. Nagagutsu wo Haita Neko: 80 Nichikan Sekai Isshuu
  1583. Nanatsu no Taizai
  1584. Nanatsu no Taizai Movie: Tenkuu no Torawarebito
  1585. Nanatsu no Taizai OVA
  1586. Nanatsu no Taizai: Eiyuu-tachi wa Hashagu
  1587. Nanatsu no Taizai: Imashime no Fukkatsu
  1588. Nanatsu no Taizai: Kamigami no Gekirin
  1589. Nanatsu no Taizai: Seisen no Shirushi
  1590. Nanatsu no Umi no Tico
  1591. not available in English Nanatsu no Umi no Tico Specials
  1592. not available in English Nangoku Shounen Papuwa-kun
  1593. Nano Invaders
  1594. Nanocore 3rd Season
  1595. not available in English Narara Superboard
  1596. not available in English Narara Wonder Gongju
  1597. Nareuneun Dwaeji - Haejeok Mateo
  1598. Naruto
  1599. Naruto Movie 1: Dai Katsugeki!! Yuki Hime Shinobu Houjou Dattebayo!
  1600. Naruto Movie 2: Dai Gekitotsu! Maboroshi no Chiteiiseki Dattebayo!
  1601. Naruto Movie 3: Dai Koufun! Mikazuki Jima no Animaru Panikku Dattebayo!
  1602. Naruto Narutimate Hero 3: Tsuini Gekitotsu! Jounin vs. Genin!! Musabetsu Dairansen Taikai Kaisai!!
  1603. Naruto: Akaki Yotsuba no Clover wo Sagase
  1604. Naruto: Shippuuden
  1605. Naruto: Shippuuden Movie 1
  1606. Naruto: Shippuuden Movie 5 - Blood Prison
  1607. Naruto: Shippuuden Movie 6 - Road to Ninja
  1608. Naruto: Takigakure no Shitou - Ore ga Eiyuu Dattebayo!
  1609. Naruto: The Cross Roads
  1610. Negibouzu no Asatarou
  1611. Negima!?
  1612. Nejimaki Seirei Senki: Tenkyou no Alderamin
  1613. Neko no Ongaeshi
  1614. Nemure Omoigo, Sora no Shitone ni
  1615. Nendjuugyouji Animation Series
  1616. Neo Angelique Abyss: Second Age
  1617. Neo Ranga
  1618. Nessa no Haou Gandalla
  1619. Net Ghost Pipopa
  1620. Nezha Chuan Qi
  1621. Nezumi Monogatari: George to Gerald no Bouken
  1622. NG Knight Ramune & 40
  1623. NG Knight Ramune & 40 DX: Wakuwaku Jikuu - Honoo no Daisousasen
  1624. NG Knight Ramune & 40 EX: Biku Biku Triangle Ai no Arashi Daisakusen
  1625. Ni no Kuni
  1626. not available in English Ni Zhuan Ci Yuan: AI Jue Qi
  1627. Night Wizard
  1628. not available in English Nihon Meisaku Douwa Series: Akai Tori no Kokoro
  1629. Nijuu Mensou no Musume
  1630. not available in English Nils no Fushigi na Tabi
  1631. Nils no Fushigi na Tabi (Movie)
  1632. Ninja Box
  1633. Ninja Hattori-kun Plus Perman: Chounouryoku Wars
  1634. Ninja Hattori-kun Plus Perman: Ninja Kaijuu Jippou tai Miracle Tamago
  1635. Ninja Mono
  1636. Ninja Senshi Tobikage
  1637. Ninkuu
  1638. Ninkuu (Movie)
  1639. Ninkuu: Knife no Bohyou
  1640. not available in English Ninpuu Kamui Gaiden
  1641. Ninpuu Kamui Gaiden: Tsukihigai no Maki
  1642. ongoing Nintama Rantarou no Uchuu Daibouken with Cosmic Front☆Next
  1643. No Game No Life
  1644. not available in English Nobara no Julie
  1645. Noblesse: Pamyeol-ui Sijak
  1646. Noein: Mou Hitori no Kimi e
  1647. Noel no Fushigi na Bouken
  1648. Nogsaegjeoncha Hamos
  1649. Nonsense Monogatari Dai Ippen: Sarugashima
  1650. Nora
  1651. Noragami
  1652. Noragami Aragoto
  1653. Noragami Aragoto OVA
  1654. Noragami OVA
  1655. Norn9: Norn+Nonet
  1656. Norn9: Norn+Nonet Recap
  1657. Oban Star-Racers
  1658. Odin: Koushi Hansen Starlight
  1659. not available in English Oi! Ryouma
  1660. Oira Uchuu no Tankoufu
  1661. ongoing Ojarumaru
  1662. Ojarumaru Yakusoku no Natsu Ojaru to Semira Movie
  1663. Ojarumaru: Mangetsu Road Kiki Ippatsu - Tama ni wa Maro mo Daibouken
  1664. Ojarumaru: Wasureta Mori no Hinata
  1665. not available in English Okawari-Boy Starzan-S
  1666. Omae Umasou da na
  1667. not available in English Omakase Scrappers
  1668. ongoing One Piece
  1669. One Piece 3D: Mugiwara Chase
  1670. One Piece 3D2Y: Ace no shi wo Koete! Luffy Nakama Tono Chikai
  1671. One Piece Film: Gold
  1672. One Piece Film: Strong World
  1673. One Piece Film: Strong World Episode 0
  1674. One Piece Film: Z
  1675. One Piece Movie 1
  1676. One Piece Movie 14: Stampede
  1677. One Piece Movie 2: Nejimaki-jima no Daibouken
  1678. One Piece Movie 3: Chinjuu-jima no Chopper Oukoku
  1679. One Piece Movie 4: Dead End no Bouken
  1680. One Piece Movie 5: Norowareta Seiken
  1681. One Piece Movie 6: Omatsuri Danshaku to Himitsu no Shima
  1682. One Piece Movie 7: Karakuri-jou no Mecha Kyohei
  1683. One Piece Movie 8: Episode of Alabasta - Sabaku no Oujo to Kaizoku-tachi
  1684. One Piece Movie 9: Episode of Chopper Plus - Fuyu ni Saku, Kiseki no Sakura
  1685. One Piece Recap
  1686. One Piece: Adventure of Nebulandia
  1687. not available in English One Piece: Episode of Alabasta - Prologue
  1688. One Piece: Episode of East Blue - Luffy to 4-nin no Nakama no Daibouken
  1689. One Piece: Episode of Luffy - Hand Island no Bouken
  1690. One Piece: Episode of Merry - Mou Hitori no Nakama no Monogatari
  1691. One Piece: Episode of Nami - Koukaishi no Namida to Nakama no Kizuna
  1692. One Piece: Episode of Sabo - 3 Kyoudai no Kizuna Kiseki no Saikai to Uketsugareru Ishi
  1693. One Piece: Episode of Sorajima
  1694. One Piece: Heart of Gold
  1695. not available in English One Piece: Kinkyuu Kikaku One Piece Kanzen Kouryakuhou
  1696. not available in English One Piece: Long Ring Long Land-hen
  1697. One Piece: Mamore! Saigo no Dai Butai
  1698. One Piece: Nenmatsu Tokubetsu Kikaku! Mugiwara no Luffy Oyabun Torimonochou
  1699. One Piece: Oounabara ni Hirake! Dekkai Dekkai Chichi no Yume!
  1700. One Piece: Straw Hat Theater
  1701. One Piece: Taose! Kaizoku Ganzack
  1702. One Piece: Umi no Heso no Daibouken-hen
  1703. Onimaru: Senjou ni Kakeru Itsutsu no Seishun
  1704. Onmyou Taisenki
  1705. Onna Senshi Efe & Jira: Gude no Monshou
  1706. not available in English Ookami Shounen Ken
  1707. Ookami Shounen Ken (Movie)
  1708. Ookami Shounen Ken: Arabia no Kaijin - Ma no Iwa no Kettou
  1709. Ookami to Koushinryou
  1710. Ookami to Koushinryou II
  1711. Ookami to Koushinryou II: Ookami to Kohakuiro no Yuuutsu
  1712. Ookami to Koushinryou VR
  1713. Ookii 1 Nensei to Chiisana 2 Nensei
  1714. Origami Warriors
  1715. Osamu to Musashi
  1716. Oseam
  1717. Otogi Juushi Akazukin
  1718. Otogi Juushi Akazukin OVA
  1719. Otogi no Sekai Ryokou
  1720. Otogizoushi
  1721. Ou Dorobou Jing
  1722. Ou Dorobou Jing in Seventh Heaven
  1723. Ougon Senshi Gold Lightan
  1724. Ougon Yuusha Goldran
  1725. Ousama Monogatari
  1726. Outlanders
  1727. Overlord
  1728. Overlord II
  1729. Overman King Gainer
  1730. Oyako Nezumi no Fushigi na Tabi
  1731. not available in English Oyayubi Hime Monogatari
  1732. Oz no Mahoutsukai
  1733. Oz no Mahoutsukai (1986)
  1734. Ozanari Dungeon: Kaze no Tou
  1735. Ozma
  1736. not available in English Pa-Pa-Pa the ★ Movie: Perman
  1737. not available in English Pa-Pa-Pa the ★ Movie: Perman - Tako de Pon! Ashi wa Pon!
  1738. Pac-World
  1739. Palme no Ki
  1740. Panda no Daibouken
  1741. Pandora Hearts
  1742. Panpaka Pants Movie: Bananan Oukoku no Hihou
  1743. Panzer Dragoon
  1744. Papuwa
  1745. Paradise
  1746. not available in English Parasol Henbei
  1747. Parol no Miraijima
  1748. Pastel Memories
  1749. Patalliro Saiyuuki!
  1750. not available in English Patalliro!
  1751. Patalliro! Stardust Keikaku
  1752. Patapata Hikousen no Bouken
  1753. not available in English Paul no Miracle Daisakusen
  1754. not available in English Peach Command Shin Momotarou Densetsu
  1755. not available in English Perman
  1756. Perman: Birdman ga Yatte Kita!!
  1757. Persona 4 the Animation
  1758. Persona 4 the Animation: No One is Alone
  1759. not available in English Persona 4 the Animation: The Factor of Hope
  1760. Persona 4 the Golden Animation
  1761. Persona 4 the Golden Animation: Thank you Mr. Accomplice
  1762. Personal Computer Travel Tanteidan
  1763. Peter Pan no Bouken
  1764. Peter Pan no Bouken Specials
  1765. Phantom of the Kill: Zero kara no Hangyaku
  1766. Photon
  1767. Piano no Mori
  1768. Piano no Mori (TV)
  1769. not available in English Pinocchio yori Piccolino no Bouken
  1770. Plastic Little
  1771. Plawres Sanshirou
  1772. Pokemon
  1773. ongoing Pokemon (2019)
  1774. Pokemon Advanced Generation
  1775. Pokemon Best Wishes!
  1776. Pokemon Best Wishes! Season 2
  1777. Pokemon Best Wishes! Season 2: Decolora Adventure
  1778. Pokemon Best Wishes! Season 2: Decolora Adventure - Dent to Takeshi! Gyarados no Gekirin!!
  1779. Pokemon Best Wishes! Season 2: Decolora Adventure - Iris vs. Ibuki! Dragon Master e no Michi!!
  1780. Pokemon Best Wishes! Season 2: Episode N
  1781. Pokemon Crystal: Raikou Ikazuchi no Densetsu
  1782. Pokemon Diamond & Pearl
  1783. not available in English Pokemon Diamond & Pearl Atsumare! Pokemon Planet Center
  1784. Pokemon Diamond & Pearl: Clip Show
  1785. Pokemon Fushigi no Dungeon: Shutsudou Pokemon Kyuujotai Ganbaruzu!
  1786. Pokemon Fushigi no Dungeon: Sora no Tankentai - Toki to Yami wo Meguru Saigo no Bouken
  1787. Pokemon Fushigi no Dungeon: Toki no Tankentai, Yami no Tankentai
  1788. Pokemon Generations
  1789. Pokemon Housoukyoku
  1790. Pokemon Movie 01: Mewtwo no Gyakushuu
  1791. Pokemon Movie 02: Maboroshi no Pokemon Lugia Bakutan
  1792. Pokemon Movie 03: Kesshoutou no Teiou Entei
  1793. Pokemon Movie 04: Celebi Toki wo Koeta Deai
  1794. Pokemon Movie 05: Mizu no Miyako no Mamorigami Latias to Latios
  1795. Pokemon Movie 06: Nanayo no Negaiboshi Jirachi
  1796. Pokemon Movie 07: Rekkuu no Houmonsha Deoxys
  1797. Pokemon Movie 08: Mew to Hadou no Yuusha Lucario
  1798. Pokemon Movie 09: Pokemon Ranger to Umi no Ouji Manaphy
  1799. Pokemon Movie 10: Dialga vs. Palkia vs. Darkrai
  1800. Pokemon Movie 11: Giratina to Sora no Hanataba Sheimi
  1801. Pokemon Movie 12: Arceus Choukoku no Jikuu e
  1802. Pokemon Movie 13: Genei no Hasha Zoroark
  1803. Pokemon Movie 14 Black: Victini to Shiroki Eiyuu Reshiram
  1804. Pokemon Movie 14 White: Victini to Kuroki Eiyuu Zekrom
  1805. Pokemon Movie 15: Kyurem vs. Seikenshi
  1806. Pokemon Movie 16: Shinsoku no Genosect - Mewtwo Kakusei
  1807. Pokemon Movie 17: Hakai no Mayu to Diancie
  1808. Pokemon Movie 18: Ring no Choumajin Hoopa
  1809. Pokemon Movie 19: Volcanion to Karakuri no Magearna
  1810. Pokemon Movie 20: Kimi ni Kimeta!
  1811. Pokemon Movie 21: Minna no Monogatari
  1812. Pokemon Movie 22: Mewtwo no Gyakushuu Evolution
  1813. Pokemon XY
  1814. Pokemon XY SP: Road to Kalos
  1815. Pokemon XY: Mega Evolution
  1816. Pokemon XY: New Year Special
  1817. Pokemon XY: New Year's Eve 2014 Super Mega Special
  1818. not available in English Pokemon XY: Sora no Hahen
  1819. Pokemon XY&Z
  1820. Pokemon XY&Z Specials
  1821. Pokemon XY&Z: Subete no Nazo wo Tokiakase!
  1822. not available in English Pokemon: Aki no Special
  1823. Pokemon: Bokutachi Pichu Brothers - Party wa Oosawagi! no Maki
  1824. Pokemon: Meloetta no Kirakira Recital
  1825. Pokemon: Mewtwo - Kakusei e no Prologue
  1826. Pokemon: Mewtwo! Ware wa Koko ni Ari
  1827. Pokemon: Pichu to Pikachu
  1828. Pokemon: Pika Pika Hoshizora Camp
  1829. Pokemon: Pikachu Koori no Daibouken
  1830. Pokemon: Pikachu no Dokidoki Kakurenbo
  1831. Pokemon: Pikachu no Fushigi na Fushigi na Daibouken
  1832. Pokemon: Pikachu no Fuyuyasumi
  1833. Pokemon: Pikachu no Fuyuyasumi (2000)
  1834. Pokemon: Pikachu no Fuyuyasumi (2001)
  1835. Pokemon: Pikachu no Kirakira Daisousaku!
  1836. Pokemon: Pikachu no Obake Carnival
  1837. Pokemon: Pikachu no Summer Bridge Story
  1838. Pokemon: Pikachu no Wanpaku Island
  1839. Pokemon: Pikachu Tanken Club
  1840. Pokemon: Pikachu Tankentai
  1841. Pokemon: Pikachu to Eievui Friends
  1842. Pokemon: Pikachu to Pokemon Ongakutai
  1843. Pokemon: Pikachu, Kore Nan no Kagi?
  1844. Pokemon: Senritsu no Mirage Pokemon
  1845. Pokemon: The Origin
  1846. Pokopon no Yukai na Saiyuuki
  1847. PopoloCrois
  1848. Popolocrois Monogatari
  1849. Pororo Daemoheom
  1850. Power Dolls
  1851. Power Stone
  1852. Princess Connect! Re:Dive
  1853. Princess Minerva
  1854. Project A-Ko
  1855. Project BLUE Chikyuu SOS
  1856. not available in English PuriGorota: Uchuu no Yuujou Daibouken
  1857. not available in English Pygmalio
  1858. Qingwa Wangguo
  1859. Qingwa Wangguo: Zhi Bingdong Da Maoxian
  1860. Queen Emeraldas
  1861. Queen's Blade OVA
  1862. Queen's Blade OVA Specials
  1863. Queen's Blade: Grimoire
  1864. Queen's Blade: Gyokuza wo Tsugu Mono
  1865. Queen's Blade: Gyokuza wo Tsugu Mono Specials
  1866. Queen's Blade: Rebellion
  1867. Queen's Blade: Rurou no Senshi
  1868. Queen's Blade: Rurou no Senshi Specials
  1869. ongoing Queen's Blade: Unlimited
  1870. Queen's Blade: Utsukushiki Toushi-tachi
  1871. R-15: R15 Shounen Hyouryuuki
  1872. R.O.D: Read or Die
  1873. R.O.D: The TV
  1874. Radiant
  1875. Radiant 2nd Season
  1876. not available in English Rainbow Sentai Robin
  1877. Rakushou! Hyper Doll
  1878. Ramayana: The Legend of Prince Rama
  1879. Ranma ½ Super
  1880. Ranma ½: Chou Musabetsu Kessen! Ranma Team vs. Densetsu no Houou
  1881. Ranma ½: Chuugoku Nekonron Daikessen! Okite Yaburi no Gekitou-hen!!
  1882. Ranma ½: Kessen Tougenkyou! Hanayome wo Torimodose!
  1883. Rayearth
  1884. Re:Petit kara Hajimeru Isekai Seikatsu
  1885. Re:Zero kara Hajimeru Break Time
  1886. ongoing Re:Zero kara Hajimeru Break Time 2nd Season
  1887. Rekka no Honoo
  1888. Rekka no Honoo: Final Burning
  1889. Renshenguo
  1890. Restol: Teugsu Gujo Dae
  1891. RG Veda
  1892. RGB Adventure
  1893. Ribbon no Kishi Pilot
  1894. RobiHachi
  1895. not available in English Robin Hood no Daibouken
  1896. Robinson Crusoe: Mujintou no Bouken
  1897. not available in English Robokko Beeton
  1898. ongoing Robot Pulta
  1899. Rocket Girls
  1900. Rockman Hoshi ni Negai wo
  1901. Rockman.EXE
  1902. Rockman.EXE Axess
  1903. Rockman.EXE Beast
  1904. Rockman.EXE Beast+
  1905. Rockman.EXE Movie: Hikari to Yami no Program
  1906. Rockman.EXE Stream
  1907. Rokka no Yuusha
  1908. Rokka no Yuusha Picture Drama
  1909. Roku no Sekai
  1910. Rokumon Tengai Mon Colle Knights
  1911. Rokumon Tengai Mon Colle Knights Movie: Densetsu no Fire Dragon
  1912. Rolling☆Girls
  1913. Romeo no Aoi Sora
  1914. Romeo no Aoi Sora Specials
  1915. not available in English RPG Densetsu Hepoi
  1916. Rudolf to Ippaiattena
  1917. Running Man
  1918. Rurouni Kenshin Recap
  1919. Rurouni Kenshin: Meiji Kenkaku Romantan
  1920. Ryuu no Haisha
  1921. Ryuugajou Nanana no Maizoukin (TV)
  1922. Ryuusei no Rockman Tribe
  1923. Ryuusei Sentai Musumet
  1924. s.CRY.ed
  1925. s.CRY.ed Alteration I: Tao
  1926. s.CRY.ed Alteration II: Quan
  1927. Sabaku no Kaizoku! Captain Kuppa
  1928. Sabaku no Kuni no Oujosama
  1929. Saber Marionette J
  1930. Saber Marionette J to X
  1931. not available in English Sabu to Ichi Torimono Hikae
  1932. Saikyou Ginga Ultimate Zero: Battle Spirits
  1933. Saint October
  1934. Saint Seiya
  1935. Saint Seiya Omega
  1936. not available in English Saint Seiya Recap
  1937. Saint Seiya: Jashin Eris
  1938. Saint Seiya: Kamigami no Atsuki Tatakai
  1939. Saint Seiya: Legend of Sanctuary
  1940. Saint Seiya: Meiou Hades Juuni Kyuu-hen
  1941. not available in English Saint Seiya: Meiou Hades Juuni Kyuu-hen - Yomigaerishi Gold Saint-tachi no Shinwa
  1942. Saint Seiya: Meiou Hades Meikai-hen
  1943. Saint Seiya: Saintia Shou
  1944. Saint Seiya: Saishuu Seisen no Senshi-tachi
  1945. Saint Seiya: Shinku no Shounen Densetsu
  1946. Saint Seiya: Soul of Gold
  1947. Saint Seiya: Tenkai-hen Josou - Overture
  1948. Saint Seiya: The Lost Canvas - Meiou Shinwa
  1949. Saint Seiya: The Lost Canvas - Meiou Shinwa 2
  1950. Saiunkoku Monogatari
  1951. Saiunkoku Monogatari 2nd Season
  1952. Saiunkoku Monogatari Recaps
  1953. Saiyuuki
  1954. Saiyuuki Gaiden
  1955. not available in English Saiyuuki Gaiden: Kouga no Shou
  1956. Saiyuuki Reload
  1957. Saiyuuki Reload Blast
  1958. Saiyuuki Reload Gunlock
  1959. Saiyuuki Reload: Burial
  1960. Sakasama no Patema
  1961. Sakura Taisen
  1962. Sakura Taisen: Ecole de Paris
  1963. Sakura Taisen: Gouka Kenran
  1964. Sakura Taisen: Katsudou Shashin
  1965. Sakura Taisen: Le Nouveau Paris
  1966. Sakura Taisen: New York
  1967. Sakura Taisen: Ouka Kenran
  1968. Sakura Taisen: Sumire
  1969. not available in English Salad Juu Yuushi Tomatoman
  1970. Salamander
  1971. Samchongsa: Time Machine 001
  1972. Samurai Champloo
  1973. Samurai Deeper Kyou
  1974. Samurai Girl Real Bout High School
  1975. Samurai Spirits: Haten Gouma no Shou
  1976. Sango Shou Densetsu: Aoi Umi no Elfie
  1977. Sanrio Anime Sekai Meisaku Gekijou
  1978. Sanzoku no Musume Ronja
  1979. Saru Getchu Movie: Ougon no Pipo Helmet - Ukki Battle
  1980. Saru Getchu: On Air
  1981. not available in English Saru Getchu: On Air 2nd
  1982. not available in English Sasuga no Sarutobi
  1983. not available in English Sasurai no Shoujo Nell
  1984. Satsuriku no Tenshi
  1985. Sayonara Ginga Tetsudou 999: Andromeda Shuuchakueki
  1986. Sayonara, Midori ga ike: Tobe! Tako Glider!!
  1987. Scared Rider Xechs
  1988. Scrapped Princess
  1989. SD Gundam Force
  1990. SD Gundam Gaiden
  1991. Sei Juushi Bismarck
  1992. Seihou Bukyou Outlaw Star
  1993. Seihou Bukyou Outlaw Star Specials
  1994. Seihou Tenshi Angel Links
  1995. Seiken no Blacksmith
  1996. not available in English Seimei no Kagaku: Micro Patrol
  1997. Seirei no Moribito
  1998. Seirei Tsukai
  1999. Seisen Cerberus: Ryuukoku no Fatalités
  2000. Seisenshi Dunbine
  2001. Seisenshi Dunbine Memorial
  2002. Seisenshi Dunbine OVA
  2003. Sekai Douwa Anime Zenshuu
  2004. not available in English Sekai Meisaku Douwa Series
  2005. Sekai Meisaku Douwa: Aladdin to Mahou no Lamp
  2006. not available in English Sekai no Fushigi Tanken Series
  2007. Sekai no Ouja: King Kong Taikai
  2008. Sen to Chihiro no Kamikakushi
  2009. Sengoku Bushou Retsuden Bakufuu Douji Hissatsuman
  2010. Senkaiden Houshin Engi
  2011. Sennen Joyuu
  2012. not available in English Seton Doubutsuki
  2013. not available in English Seton Doubutsuki: Kuma no Ko Jacky
  2014. not available in English SF Saiyuuki Starzinger
  2015. SF Saiyuuki Starzinger (Movie)
  2016. SF Shinseiki Lensman
  2017. Shachou, Battle no Jikan Desu!
  2018. Shadow Skill
  2019. Shadow Skill (1996)
  2020. Shadow Skill: Eigi
  2021. Shadow Skill: Kurudaryuu Kousatsuhou no Himitsu
  2022. Shaman King
  2023. Shampoo Ouji
  2024. Shan He She Ji Tu
  2025. Shao Nian Ge Xing
  2026. Shaolin Chuanqi
  2027. Shaonian Jinyiwei
  2028. Shaonian Jinyiwei 2nd Season
  2029. Shen Ming Zhi Zhou
  2030. Shen Qi Huan Qi Tan
  2031. Shenmi Shijie Lixian Ji
  2032. Shenmi Shijie Lixian Ji 2
  2033. Shenmi Shijie Lixian Ji 3
  2034. Shenmue: The Movie
  2035. Shi Wan Ge Leng Xiaohua Movie 1
  2036. Shi Wan Ge Leng Xiaohua Movie 2
  2037. Shichinin no Nana
  2038. Shichinin no Nana: Oshougatsu Da yo! 7 x 7 = 49-nin no Nana?
  2039. Shika to Kanta
  2040. Shikabane Hime: Kuro – Soredemo, Hito to Shite
  2041. not available in English Shima Shima Tora no Shimajirou
  2042. Shimajirou Hesoka
  2043. ongoing Shimajirou no Wow!
  2044. Shimajirou to Fufu no Daibouken Movie: Sukue! Nana-iro no Hana
  2045. Shimajirou to Kujira no Uta
  2046. Shimajirou to Ookinaki
  2047. Shimajirou to Tanjoubi no Ohoshi-sama
  2048. Shin Chou Kyou Ryo: Condor Hero
  2049. Shin Chou Kyou Ryo: Condor Hero II
  2050. not available in English Shin Chou Kyou Ryo: Condor Hero III
  2051. Shin Cutey Honey
  2052. not available in English Shin Don Chuck Monogatari
  2053. Shin Getter Robo
  2054. Shin Hakkenden
  2055. Shin Hikari Shinwa: Palutena no Kagami
  2056. Shin Kabukichou Story Hana no Asukagumi!
  2057. Shin Kaitei Gunkan
  2058. Shin Koihime†Musou: Otome Tairan
  2059. Shin Koihime†Musou: Otome Tairan OVA Omake
  2060. Shin Mashin Eiyuuden Wataru Majinzan
  2061. not available in English Shin Megami Tensei Devil Children
  2062. not available in English Shin Megami Tensei Devil Children: Light & Dark
  2063. not available in English Shin Minashigo Hutch
  2064. Shin Mitsubachi Maya no Bouken
  2065. hentai Shin Reyon Densetsu: Shikkoku no Majin
  2066. Shin Sakura Taisen the Animation
  2067. Shin Shounan Bakusouzoku Arakure Knight
  2068. Shin SOS Dai Tokyo Tankentai
  2069. Shin Takarajima
  2070. Shinchou Yuusha: Kono Yuusha ga Ore Tsueee Kuse ni Shinchou Sugiru
  2071. Shinchou Yuusha: Kono Yuusha ga Ore Tsueee Kuse ni Shinchou Sugiru Recap
  2072. Shingeki no Bahamut: Genesis
  2073. Shingeki no Bahamut: Genesis - Roundup
  2074. Shingeki no Bahamut: Genesis - Short Story
  2075. Shingeki no Bahamut: Virgin Soul
  2076. Shining Tears X Wind
  2077. Shinkai Densetsu Meremanoid
  2078. Shinkai no Kantai: Submarine 707
  2079. Shinpi no Hou
  2080. Shinzou Ningen Casshern
  2081. not available in English Shirayuki Hime no Densetsu
  2082. Shiro Hon
  2083. Shirobako Specials
  2084. Shiroi Kiba White Fang Monogatari
  2085. Shironeko Project: Zero Chronicle
  2086. not available in English Shisukon Ouji
  2087. Shoujo Shuumatsu Ryokou
  2088. Shoukoku no Altair
  2089. Shoumetsu Toshi
  2090. Shounen Jack to Mahoutsukai
  2091. Shounen Kenya
  2092. not available in English Shounen Ninja Kaze no Fujimaru
  2093. Shounen Ninja Kaze no Fujimaru: Nazo no Arabiya Ningyou
  2094. Shounen Santa no Daibouken!
  2095. Shounen Sarutobi Sasuke
  2096. Shukufuku no Campanella
  2097. Si Hai Jing Qi
  2098. Silent Möbius 2
  2099. Silent Möbius: The Motion Picture
  2100. Silk Road Shounen Yuuto
  2101. Silk Road Shounen Yuuto: Toki wo Kakeru Shounen Yuuto no Hyouryuu Nikki
  2102. Sinbad: Mahiru no Yoru to Fushigi no Mon
  2103. Sinbad: Mahou no Lamp to Ugoku Shima
  2104. Sinbad: Soratobu Hime to Himitsu no Shima
  2105. Slayers
  2106. Slayers Evolution-R
  2107. Slayers Excellent
  2108. Slayers Gorgeous
  2109. Slayers Great
  2110. Slayers Next
  2111. Slayers Premium
  2112. Slayers Return
  2113. Slayers Revolution
  2114. Slayers Special
  2115. Slayers Try
  2116. Slayers: The Motion Picture
  2117. not available in English Slime Boukenki: Umi da, Yeah!
  2118. not available in English Sobakasu Pucchi
  2119. Sol Bianca
  2120. Sol Bianca: Taiyou no Fune
  2121. Somali to Mori no Kamisama
  2122. Son Gokuu Silk Road wo Tobu!!
  2123. not available in English Son O-gong gwa Byeoldeul-ui Jeonjaeng
  2124. Sonic X
  2125. Sonic★the★Hedgehog
  2126. Sonyeon 007 Eunhateukgongdae
  2127. Sonyeon 007 Jihajeguk
  2128. Sora to Umi no Aida
  2129. Sora wo Kakeru Shoujo
  2130. Sora wo Kakeru Shoujo Picture Drama
  2131. Sora yori mo Tooi Basho